Observation data for Colorado City on 09/11/2017      Previous  Date  Next       Current Mesonet Observations  Soil Data  Daily Summary Page  Observations in Plain Language
KCO2 110500Z 12006KT 16/10 A302 RMK A01 T01630098  RH  066%=      5-min Rain = 0
KCO2 110501Z 12006KT 16/10 A302 RMK A01 T01640099  RH  065%=      5-min Rain = 0
KCO2 110502Z 12006KT 17/10 A302 RMK A01 T01650099  RH  065%=      5-min Rain = 0
KCO2 110503Z 12006KT 17/10 A302 RMK A01 T01660099  RH  064%=      5-min Rain = 0
KCO2 110504Z 12005KT 17/10 A302 RMK A01 T01670099  RH  064%=      5-min Rain = 0
KCO2 110505Z 12006KT 17/10 A302 RMK A01 T01670099  RH  064%=      5-min Rain = 0
KCO2 110506Z 12006KT 17/10 A302 RMK A01 T01670099  RH  064%=      5-min Rain = 0
KCO2 110507Z 12006KT 17/10 A302 RMK A01 T01680099  RH  064%=      5-min Rain = 0
KCO2 110508Z 12006KT 17/10 A302 RMK A01 T01680099  RH  063%=      5-min Rain = 0
KCO2 110509Z 12006KT 17/10 A302 RMK A01 T01680099  RH  063%=      5-min Rain = 0
KCO2 110510Z 12006KT 17/10 A302 RMK A01 T01680099  RH  063%=      5-min Rain = 0
KCO2 110511Z 12006KT 17/10 A302 RMK A01 T01690099  RH  063%=      5-min Rain = 0
KCO2 110512Z 12005KT 17/10 A302 RMK A01 T01690099  RH  063%=      5-min Rain = 0
KCO2 110513Z 12005KT 17/10 A302 RMK A01 T01690099  RH  063%=      5-min Rain = 0
KCO2 110514Z 11005KT 17/10 A302 RMK A01 T01690099  RH  063%=      5-min Rain = 0
KCO2 110515Z 11005KT 17/10 A302 RMK A01 T01690099  RH  063%=      5-min Rain = 0
KCO2 110516Z 11005KT 17/10 A302 RMK A01 T01700099  RH  063%=      5-min Rain = 0
KCO2 110517Z 11005KT 17/10 A302 RMK A01 T01700099  RH  063%=      5-min Rain = 0
KCO2 110518Z 11005KT 17/10 A302 RMK A01 T01700099  RH  063%=      5-min Rain = 0
KCO2 110519Z 11005KT 17/10 A302 RMK A01 T01700099  RH  063%=      5-min Rain = 0
KCO2 110520Z 11005KT 17/10 A302 RMK A01 T01710099  RH  063%=      5-min Rain = 0
KCO2 110521Z 11005KT 17/10 A302 RMK A01 T01710099  RH  062%=      5-min Rain = 0
KCO2 110522Z 11005KT 17/10 A302 RMK A01 T01720099  RH  062%=      5-min Rain = 0
KCO2 110523Z 11005KT 17/10 A302 RMK A01 T01730099  RH  062%=      5-min Rain = 0
KCO2 110524Z 11005KT 17/10 A302 RMK A01 T01730099  RH  062%=      5-min Rain = 0
KCO2 110525Z 11005KT 17/10 A302 RMK A01 T01740099  RH  061%=      5-min Rain = 0
KCO2 110526Z 10005KT 18/10 A302 RMK A01 T01750100  RH  061%=      5-min Rain = 0
KCO2 110527Z 10005KT 18/10 A302 RMK A01 T01750100  RH  061%=      5-min Rain = 0
KCO2 110528Z 10005KT 18/10 A302 RMK A01 T01750100  RH  061%=      5-min Rain = 0
KCO2 110529Z 11005KT 18/10 A302 RMK A01 T01760100  RH  061%=      5-min Rain = 0
KCO2 110530Z 11004KT 18/10 A302 RMK A01 T01750100  RH  061%=      5-min Rain = 0
KCO2 110531Z 11004KT 18/10 A302 RMK A01 T01760100  RH  061%=      5-min Rain = 0
KCO2 110532Z 10004KT 18/10 A302 RMK A01 T01760100  RH  061%=      5-min Rain = 0
KCO2 110533Z 10004KT 18/10 A302 RMK A01 T01760100  RH  061%=      5-min Rain = 0
KCO2 110534Z 10004KT 18/10 A302 RMK A01 T01760099  RH  060%=      5-min Rain = 0
KCO2 110535Z 09004KT 18/10 A302 RMK A01 T01770099  RH  060%=      5-min Rain = 0
KCO2 110536Z 09004KT 18/10 A302 RMK A01 T01770099  RH  060%=      5-min Rain = 0
KCO2 110537Z 09004KT 18/10 A302 RMK A01 T01770100  RH  061%=      5-min Rain = 0
KCO2 110538Z 09004KT 18/10 A302 RMK A01 T01760099  RH  061%=      5-min Rain = 0
KCO2 110539Z 09004KT 18/10 A302 RMK A01 T01760099  RH  061%=      5-min Rain = 0
KCO2 110540Z 09004KT 18/10 A302 RMK A01 T01760099  RH  061%=      5-min Rain = 0
KCO2 110541Z 09004KT 18/10 A302 RMK A01 T01760099  RH  061%=      5-min Rain = 0
KCO2 110542Z 09004KT 18/10 A302 RMK A01 T01760099  RH  061%=      5-min Rain = 0
KCO2 110543Z 10004KT 18/10 A302 RMK A01 T01760100  RH  061%=      5-min Rain = 0
KCO2 110544Z 09004KT 18/10 A302 RMK A01 T01760099  RH  061%=      5-min Rain = 0
KCO2 110545Z 10003KT 18/10 A302 RMK A01 T01770099  RH  060%=      5-min Rain = 0
KCO2 110546Z 10003KT 18/10 A302 RMK A01 T01770099  RH  060%=      5-min Rain = 0
KCO2 110547Z 09003KT 18/10 A302 RMK A01 T01770099  RH  060%=      5-min Rain = 0
KCO2 110548Z 09003KT 18/10 A302 RMK A01 T01780099  RH  060%=      5-min Rain = 0
KCO2 110549Z 09004KT 18/10 A302 RMK A01 T01780099  RH  060%=      5-min Rain = 0
KCO2 110550Z 09004KT 18/10 A302 RMK A01 T01780100  RH  060%=      5-min Rain = 0
KCO2 110551Z 09004KT 18/10 A302 RMK A01 T01770099  RH  060%=      5-min Rain = 0
KCO2 110552Z 09004KT 18/10 A302 RMK A01 T01770099  RH  060%=      5-min Rain = 0
KCO2 110553Z 09005KT 18/10 A302 RMK A01 T01760099  RH  060%=      5-min Rain = 0
KCO2 110554Z 09005KT 18/10 A302 RMK A01 T01750099  RH  061%=      5-min Rain = 0
KCO2 110555Z 10005KT 17/10 A302 RMK A01 T01740099  RH  061%=      5-min Rain = 0
KCO2 110556Z 10005KT 17/10 A302 RMK A01 T01740099  RH  061%=      5-min Rain = 0
KCO2 110557Z 10005KT 17/10 A302 RMK A01 T01740099  RH  061%=      5-min Rain = 0
KCO2 110558Z 10005KT 17/10 A302 RMK A01 T01740099  RH  061%=      5-min Rain = 0
KCO2 110559Z 10005KT 17/10 A302 RMK A01 T01740099  RH  061%=      5-min Rain = 0
KCO2 110600Z 10005KT 17/10 A302 RMK A01 T01730098  RH  062%=      5-min Rain = 0
KCO2 110601Z 10005KT 17/10 A302 RMK A01 T01720099  RH  062%=      5-min Rain = 0
KCO2 110602Z 10004KT 17/10 A302 RMK A01 T01710098  RH  062%=      5-min Rain = 0
KCO2 110603Z 10004KT 17/10 A302 RMK A01 T01700098  RH  062%=      5-min Rain = 0
KCO2 110604Z 10004KT 17/10 A302 RMK A01 T01700098  RH  063%=      5-min Rain = 0
KCO2 110605Z 10005KT 17/10 A302 RMK A01 T01690098  RH  063%=      5-min Rain = 0
KCO2 110606Z 10005KT 17/10 A302 RMK A01 T01690098  RH  063%=      5-min Rain = 0
KCO2 110607Z 10005KT 17/10 A302 RMK A01 T01690098  RH  063%=      5-min Rain = 0
KCO2 110608Z 10005KT 17/10 A302 RMK A01 T01690098  RH  063%=      5-min Rain = 0
KCO2 110609Z 10005KT 17/10 A302 RMK A01 T01700099  RH  063%=      5-min Rain = 0
KCO2 110610Z 10004KT 17/10 A302 RMK A01 T01710099  RH  062%=      5-min Rain = 0
KCO2 110611Z 10004KT 17/10 A302 RMK A01 T01710099  RH  062%=      5-min Rain = 0
KCO2 110612Z 11004KT 17/10 A302 RMK A01 T01710099  RH  062%=      5-min Rain = 0
KCO2 110613Z 11004KT 17/10 A302 RMK A01 T01710099  RH  062%=      5-min Rain = 0
KCO2 110614Z 11004KT 17/10 A302 RMK A01 T01700099  RH  063%=      5-min Rain = 0
KCO2 110615Z 11004KT 17/10 A302 RMK A01 T01690098  RH  063%=      5-min Rain = 0
KCO2 110616Z 11004KT 17/10 A302 RMK A01 T01690098  RH  063%=      5-min Rain = 0
KCO2 110617Z 11004KT 17/10 A302 RMK A01 T01680098  RH  063%=      5-min Rain = 0
KCO2 110618Z 11004KT 17/10 A302 RMK A01 T01680099  RH  063%=      5-min Rain = 0
KCO2 110619Z 11004KT 17/10 A302 RMK A01 T01680098  RH  063%=      5-min Rain = 0
KCO2 110620Z 11004KT 17/10 A302 RMK A01 T01690098  RH  063%=      5-min Rain = 0
KCO2 110621Z 11004KT 17/10 A302 RMK A01 T01700098  RH  063%=      5-min Rain = 0
KCO2 110622Z 11004KT 17/10 A302 RMK A01 T01700098  RH  062%=      5-min Rain = 0
KCO2 110623Z 11004KT 17/10 A302 RMK A01 T01710098  RH  062%=      5-min Rain = 0
KCO2 110624Z 11003KT 17/10 A302 RMK A01 T01710098  RH  062%=      5-min Rain = 0
KCO2 110625Z 11003KT 17/10 A302 RMK A01 T01710098  RH  062%=      5-min Rain = 0
KCO2 110626Z 11004KT 17/10 A302 RMK A01 T01710099  RH  062%=      5-min Rain = 0
KCO2 110627Z 12004KT 17/10 A302 RMK A01 T01710098  RH  062%=      5-min Rain = 0
KCO2 110628Z 13004KT 17/10 A302 RMK A01 T01710098  RH  062%=      5-min Rain = 0
KCO2 110629Z 13004KT 17/10 A302 RMK A01 T01700098  RH  063%=      5-min Rain = 0
KCO2 110630Z 13004KT 17/10 A302 RMK A01 T01690098  RH  063%=      5-min Rain = 0
KCO2 110631Z 13004KT 17/10 A302 RMK A01 T01670098  RH  063%=      5-min Rain = 0
KCO2 110632Z 14004KT 17/10 A302 RMK A01 T01670098  RH  064%=      5-min Rain = 0
KCO2 110633Z 14004KT 17/10 A302 RMK A01 T01660098  RH  064%=      5-min Rain = 0
KCO2 110634Z 13004KT 17/10 A302 RMK A01 T01660098  RH  064%=      5-min Rain = 0
KCO2 110635Z 13004KT 17/10 A302 RMK A01 T01660098  RH  064%=      5-min Rain = 0
KCO2 110636Z 13004KT 17/10 A302 RMK A01 T01660098  RH  064%=      5-min Rain = 0
KCO2 110637Z 13003KT 17/10 A302 RMK A01 T01670098  RH  064%=      5-min Rain = 0
KCO2 110638Z 13003KT 17/10 A302 RMK A01 T01670097  RH  063%=      5-min Rain = 0
KCO2 110639Z 13003KT 16/10 A302 RMK A01 T01640096  RH  064%=      5-min Rain = 0
KCO2 110640Z 12003KT 16/10 A302 RMK A01 T01620096  RH  065%=      5-min Rain = 0
KCO2 110641Z 12003KT 16/10 A302 RMK A01 T01620098  RH  066%=      5-min Rain = 0
KCO2 110642Z 12003KT 16/10 A302 RMK A01 T01630098  RH  065%=      5-min Rain = 0
KCO2 110643Z 12003KT 16/10 A302 RMK A01 T01630098  RH  065%=      5-min Rain = 0
KCO2 110644Z 12003KT 16/10 A302 RMK A01 T01630098  RH  065%=      5-min Rain = 0
KCO2 110645Z 13003KT 16/10 A302 RMK A01 T01640098  RH  065%=      5-min Rain = 0
KCO2 110646Z 13003KT 16/10 A302 RMK A01 T01630097  RH  065%=      5-min Rain = 0
KCO2 110647Z 14003KT 17/10 A302 RMK A01 T01650098  RH  065%=      5-min Rain = 0
KCO2 110648Z 14003KT 17/10 A302 RMK A01 T01660098  RH  064%=      5-min Rain = 0
KCO2 110649Z 13003KT 17/10 A302 RMK A01 T01670098  RH  064%=      5-min Rain = 0
KCO2 110650Z 13003KT 17/10 A302 RMK A01 T01680098  RH  063%=      5-min Rain = 0
KCO2 110651Z 13003KT 17/10 A302 RMK A01 T01690098  RH  063%=      5-min Rain = 0
KCO2 110652Z 13003KT 17/10 A302 RMK A01 T01700098  RH  063%=      5-min Rain = 0
KCO2 110653Z 13003KT 17/10 A302 RMK A01 T01710098  RH  062%=      5-min Rain = 0
KCO2 110654Z 13003KT 17/10 A302 RMK A01 T01710098  RH  062%=      5-min Rain = 0
KCO2 110655Z 13003KT 17/10 A302 RMK A01 T01710098  RH  062%=      5-min Rain = 0
KCO2 110656Z 13003KT 17/10 A302 RMK A01 T01720098  RH  062%=      5-min Rain = 0
KCO2 110657Z 12004KT 17/10 A302 RMK A01 T01720098  RH  062%=      5-min Rain = 0
KCO2 110658Z 13004KT 17/10 A302 RMK A01 T01730098  RH  062%=      5-min Rain = 0
KCO2 110659Z 13004KT 17/10 A302 RMK A01 T01730098  RH  061%=      5-min Rain = 0
KCO2 110700Z 12004KT 17/10 A302 RMK A01 T01730099  RH  061%=      5-min Rain = 0
KCO2 110701Z 12004KT 17/10 A302 RMK A01 T01730099  RH  062%=      5-min Rain = 0
KCO2 110702Z 12004KT 17/10 A302 RMK A01 T01720099  RH  062%=      5-min Rain = 0
KCO2 110703Z 12004KT 17/10 A3019 RMK A01 T01700098  RH  063%=      5-min Rain = 0
KCO2 110704Z 12004KT 17/10 A3019 RMK A01 T01680098  RH  063%=      5-min Rain = 0
KCO2 110705Z 12004KT 17/10 A3019 RMK A01 T01660098  RH  064%=      5-min Rain = 0
KCO2 110706Z 12004KT 16/10 A3019 RMK A01 T01640098  RH  065%=      5-min Rain = 0
KCO2 110707Z 12004KT 16/10 A3019 RMK A01 T01630098  RH  065%=      5-min Rain = 0
KCO2 110708Z 12004KT 16/10 A3019 RMK A01 T01620098  RH  066%=      5-min Rain = 0
KCO2 110709Z 12004KT 16/10 A3019 RMK A01 T01630099  RH  066%=      5-min Rain = 0
KCO2 110710Z 12004KT 16/10 A3019 RMK A01 T01620098  RH  066%=      5-min Rain = 0
KCO2 110711Z 12005KT 16/10 A3019 RMK A01 T01620097  RH  065%=      5-min Rain = 0
KCO2 110712Z 12004KT 16/10 A3019 RMK A01 T01620098  RH  066%=      5-min Rain = 0
KCO2 110713Z 12005KT 16/10 A3019 RMK A01 T01620097  RH  066%=      5-min Rain = 0
KCO2 110714Z 12005KT 16/10 A3019 RMK A01 T01610097  RH  066%=      5-min Rain = 0
KCO2 110715Z 12005KT 16/10 A3019 RMK A01 T01610098  RH  066%=      5-min Rain = 0
KCO2 110716Z 12005KT 16/10 A3019 RMK A01 T01610098  RH  067%=      5-min Rain = 0
KCO2 110717Z 12005KT 16/10 A3019 RMK A01 T01600098  RH  067%=      5-min Rain = 0
KCO2 110718Z 12005KT 16/10 A3019 RMK A01 T01610098  RH  066%=      5-min Rain = 0
KCO2 110719Z 12005KT 16/10 A3019 RMK A01 T01620098  RH  066%=      5-min Rain = 0
KCO2 110720Z 12005KT 16/10 A3019 RMK A01 T01620098  RH  066%=      5-min Rain = 0
KCO2 110721Z 12005KT 16/10 A3019 RMK A01 T01620097  RH  066%=      5-min Rain = 0
KCO2 110722Z 12005KT 16/10 A3019 RMK A01 T01620098  RH  066%=      5-min Rain = 0
KCO2 110723Z 12005KT 16/10 A3019 RMK A01 T01620098  RH  066%=      5-min Rain = 0
KCO2 110724Z 13005KT 16/10 A3019 RMK A01 T01620098  RH  066%=      5-min Rain = 0
KCO2 110725Z 13005KT 16/10 A3019 RMK A01 T01620098  RH  066%=      5-min Rain = 0
KCO2 110726Z 13005KT 16/10 A3019 RMK A01 T01610098  RH  066%=      5-min Rain = 0
KCO2 110727Z 13005KT 16/10 A3019 RMK A01 T01600098  RH  066%=      5-min Rain = 0
KCO2 110728Z 13005KT 16/10 A3019 RMK A01 T01600098  RH  067%=      5-min Rain = 0
KCO2 110729Z 13005KT 16/10 A3019 RMK A01 T01590098  RH  067%=      5-min Rain = 0
KCO2 110730Z 13005KT 16/10 A3019 RMK A01 T01600099  RH  067%=      5-min Rain = 0
KCO2 110731Z 13005KT 16/10 A3019 RMK A01 T01600098  RH  067%=      5-min Rain = 0
KCO2 110732Z 13005KT 16/10 A3019 RMK A01 T01600098  RH  067%=      5-min Rain = 0
KCO2 110733Z 13005KT 16/10 A3019 RMK A01 T01600098  RH  067%=      5-min Rain = 0
KCO2 110734Z 13005KT 16/10 A3019 RMK A01 T01600098  RH  067%=      5-min Rain = 0
KCO2 110735Z 13005KT 16/10 A3019 RMK A01 T01610099  RH  066%=      5-min Rain = 0
KCO2 110736Z 13005KT 16/10 A3019 RMK A01 T01610099  RH  066%=      5-min Rain = 0
KCO2 110737Z 13005KT 16/10 A3019 RMK A01 T01610099  RH  066%=      5-min Rain = 0
KCO2 110738Z 13005KT 16/10 A3019 RMK A01 T01620099  RH  066%=      5-min Rain = 0
KCO2 110739Z 13005KT 16/10 A3019 RMK A01 T01620099  RH  066%=      5-min Rain = 0
KCO2 110740Z 13005KT 16/10 A3019 RMK A01 T01630099  RH  066%=      5-min Rain = 0
KCO2 110741Z 13005KT 16/10 A3019 RMK A01 T01630099  RH  066%=      5-min Rain = 0
KCO2 110742Z 12005KT 16/10 A3019 RMK A01 T01630099  RH  066%=      5-min Rain = 0
KCO2 110743Z 12005KT 16/10 A3019 RMK A01 T01630099  RH  066%=      5-min Rain = 0
KCO2 110744Z 12005KT 16/10 A3019 RMK A01 T01630099  RH  066%=      5-min Rain = 0
KCO2 110745Z 12005KT 16/10 A3019 RMK A01 T01630099  RH  066%=      5-min Rain = 0
KCO2 110746Z 12005KT 16/10 A3019 RMK A01 T01640099  RH  066%=      5-min Rain = 0
KCO2 110747Z 12005KT 16/10 A3019 RMK A01 T01640099  RH  065%=      5-min Rain = 0
KCO2 110748Z 12005KT 16/10 A3019 RMK A01 T01640099  RH  065%=      5-min Rain = 0
KCO2 110749Z 12005KT 16/10 A3019 RMK A01 T01640099  RH  065%=      5-min Rain = 0
KCO2 110750Z 12005KT 16/10 A3019 RMK A01 T01640099  RH  065%=      5-min Rain = 0
KCO2 110751Z 12005KT 16/10 A3019 RMK A01 T01630099  RH  066%=      5-min Rain = 0
KCO2 110752Z 12005KT 16/10 A3019 RMK A01 T01620099  RH  066%=      5-min Rain = 0
KCO2 110753Z 12005KT 16/10 A3019 RMK A01 T01610099  RH  066%=      5-min Rain = 0
KCO2 110754Z 12006KT 16/10 A3019 RMK A01 T01600099  RH  067%=      5-min Rain = 0
KCO2 110755Z 13006KT 16/10 A3019 RMK A01 T01590099  RH  067%=      5-min Rain = 0
KCO2 110756Z 12006KT 16/10 A3019 RMK A01 T01590099  RH  068%=      5-min Rain = 0
KCO2 110757Z 13006KT 16/10 A3019 RMK A01 T01580099  RH  068%=      5-min Rain = 0
KCO2 110758Z 13005KT 16/10 A3019 RMK A01 T01580099  RH  068%=      5-min Rain = 0
KCO2 110759Z 13006KT 16/10 A3019 RMK A01 T01570099  RH  068%=      5-min Rain = 0
KCO2 110800Z 13006KT 16/10 A3019 RMK A01 T01570099  RH  068%=      5-min Rain = 0
KCO2 110801Z 13006KT 16/10 A3019 RMK A01 T01570100  RH  069%=      5-min Rain = 0
KCO2 110802Z 13005KT 16/10 A3019 RMK A01 T01560099  RH  069%=      5-min Rain = 0
KCO2 110803Z 13006KT 16/10 A3019 RMK A01 T01560099  RH  069%=      5-min Rain = 0
KCO2 110804Z 13006KT 16/10 A3019 RMK A01 T01550099  RH  069%=      5-min Rain = 0
KCO2 110805Z 13006KT 15/10 A3019 RMK A01 T01540099  RH  070%=      5-min Rain = 0
KCO2 110806Z 13005KT 15/10 A3019 RMK A01 T01540099  RH  070%=      5-min Rain = 0
KCO2 110807Z 13005KT 15/10 A3019 RMK A01 T01540099  RH  070%=      5-min Rain = 0
KCO2 110808Z 13005KT 16/10 A3019 RMK A01 T01550099  RH  069%=      5-min Rain = 0
KCO2 110809Z 13005KT 16/10 A3019 RMK A01 T01550099  RH  069%=      5-min Rain = 0
KCO2 110810Z 13005KT 16/10 A3019 RMK A01 T01550100  RH  069%=      5-min Rain = 0
KCO2 110811Z 13005KT 16/10 A3019 RMK A01 T01550099  RH  069%=      5-min Rain = 0
KCO2 110812Z 13005KT 16/10 A3019 RMK A01 T01550099  RH  070%=      5-min Rain = 0
KCO2 110813Z 13005KT 16/10 A3019 RMK A01 T01550100  RH  069%=      5-min Rain = 0
KCO2 110814Z 13005KT 16/10 A3019 RMK A01 T01560100  RH  069%=      5-min Rain = 0
KCO2 110815Z 13005KT 16/10 A3019 RMK A01 T01570100  RH  069%=      5-min Rain = 0
KCO2 110816Z 12005KT 16/10 A3019 RMK A01 T01570100  RH  069%=      5-min Rain = 0
KCO2 110817Z 12005KT 16/10 A3019 RMK A01 T01570100  RH  069%=      5-min Rain = 0
KCO2 110818Z 12005KT 16/10 A3019 RMK A01 T01570100  RH  069%=      5-min Rain = 0
KCO2 110819Z 12005KT 16/10 A3019 RMK A01 T01570100  RH  069%=      5-min Rain = 0
KCO2 110820Z 12005KT 16/10 A3019 RMK A01 T01570100  RH  069%=      5-min Rain = 0
KCO2 110821Z 12005KT 16/10 A3019 RMK A01 T01570100  RH  069%=      5-min Rain = 0
KCO2 110822Z 12005KT 16/10 A3019 RMK A01 T01570100  RH  069%=      5-min Rain = 0
KCO2 110823Z 12005KT 16/10 A3019 RMK A01 T01560100  RH  069%=      5-min Rain = 0
KCO2 110824Z 12005KT 16/10 A3019 RMK A01 T01560100  RH  069%=      5-min Rain = 0
KCO2 110825Z 12005KT 16/10 A3019 RMK A01 T01560100  RH  069%=      5-min Rain = 0
KCO2 110826Z 12005KT 16/10 A3019 RMK A01 T01560100  RH  069%=      5-min Rain = 0
KCO2 110827Z 12005KT 16/10 A3019 RMK A01 T01560100  RH  069%=      5-min Rain = 0
KCO2 110828Z 12005KT 16/10 A3019 RMK A01 T01560100  RH  069%=      5-min Rain = 0
KCO2 110829Z 12005KT 16/10 A3019 RMK A01 T01560100  RH  069%=      5-min Rain = 0
KCO2 110830Z 12005KT 16/10 A3019 RMK A01 T01560100  RH  069%=      5-min Rain = 0
KCO2 110831Z 12005KT 16/10 A3019 RMK A01 T01570100  RH  069%=      5-min Rain = 0
KCO2 110832Z 13005KT 16/10 A3019 RMK A01 T01570100  RH  069%=      5-min Rain = 0
KCO2 110833Z 13005KT 16/10 A3019 RMK A01 T01570100  RH  069%=      5-min Rain = 0
KCO2 110834Z 13005KT 16/10 A3019 RMK A01 T01560100  RH  069%=      5-min Rain = 0
KCO2 110835Z 13005KT 16/10 A3019 RMK A01 T01550100  RH  069%=      5-min Rain = 0
KCO2 110836Z 13005KT 16/10 A3019 RMK A01 T01550100  RH  070%=      5-min Rain = 0
KCO2 110837Z 13005KT 16/10 A3019 RMK A01 T01550100  RH  070%=      5-min Rain = 0
KCO2 110838Z 13005KT 16/10 A3019 RMK A01 T01550100  RH  070%=      5-min Rain = 0
KCO2 110839Z 13005KT 15/10 A3019 RMK A01 T01540100  RH  070%=      5-min Rain = 0
KCO2 110840Z 13005KT 15/10 A3019 RMK A01 T01540100  RH  070%=      5-min Rain = 0
KCO2 110841Z 12005KT 15/10 A3019 RMK A01 T01540100  RH  070%=      5-min Rain = 0
KCO2 110842Z 12005KT 15/10 A3019 RMK A01 T01540100  RH  070%=      5-min Rain = 0
KCO2 110843Z 12005KT 15/10 A3019 RMK A01 T01530100  RH  070%=      5-min Rain = 0
KCO2 110844Z 12005KT 15/10 A3019 RMK A01 T01530100  RH  070%=      5-min Rain = 0
KCO2 110845Z 12005KT 15/10 A3019 RMK A01 T01530100  RH  071%=      5-min Rain = 0
KCO2 110846Z 12005KT 15/10 A3019 RMK A01 T01530100  RH  071%=      5-min Rain = 0
KCO2 110847Z 12005KT 15/10 A3019 RMK A01 T01530100  RH  071%=      5-min Rain = 0
KCO2 110848Z 12005KT 15/10 A3019 RMK A01 T01530100  RH  071%=      5-min Rain = 0
KCO2 110849Z 12005KT 15/10 A3019 RMK A01 T01530100  RH  071%=      5-min Rain = 0
KCO2 110850Z 12005KT 15/10 A3019 RMK A01 T01530100  RH  071%=      5-min Rain = 0
KCO2 110851Z 11005KT 15/10 A3019 RMK A01 T01540101  RH  071%=      5-min Rain = 0
KCO2 110852Z 11005KT 15/10 A3019 RMK A01 T01530101  RH  071%=      5-min Rain = 0
KCO2 110853Z 11005KT 15/10 A3019 RMK A01 T01530101  RH  071%=      5-min Rain = 0
KCO2 110854Z 11005KT 15/10 A3019 RMK A01 T01530100  RH  071%=      5-min Rain = 0
KCO2 110855Z 11005KT 15/10 A3019 RMK A01 T01520100  RH  071%=      5-min Rain = 0
KCO2 110856Z 12005KT 15/10 A3019 RMK A01 T01520100  RH  071%=      5-min Rain = 0
KCO2 110857Z 11005KT 15/10 A3019 RMK A01 T01510100  RH  071%=      5-min Rain = 0
KCO2 110858Z 11005KT 15/10 A3019 RMK A01 T01510100  RH  071%=      5-min Rain = 0
KCO2 110859Z 11005KT 15/10 A3019 RMK A01 T01510100  RH  071%=      5-min Rain = 0
KCO2 110900Z 11005KT 15/10 A3019 RMK A01 T01510100  RH  071%=      5-min Rain = 0
KCO2 110901Z 11005KT 15/10 A3019 RMK A01 T01510099  RH  071%=      5-min Rain = 0
KCO2 110902Z 11005KT 15/10 A3019 RMK A01 T01510099  RH  071%=      5-min Rain = 0
KCO2 110903Z 11005KT 15/10 A3019 RMK A01 T01520100  RH  071%=      5-min Rain = 0
KCO2 110904Z 11005KT 15/10 A3019 RMK A01 T01520099  RH  071%=      5-min Rain = 0
KCO2 110905Z 11005KT 15/10 A3019 RMK A01 T01530099  RH  070%=      5-min Rain = 0
KCO2 110906Z 11005KT 15/10 A3019 RMK A01 T01530099  RH  070%=      5-min Rain = 0
KCO2 110907Z 11005KT 15/10 A3019 RMK A01 T01540099  RH  070%=      5-min Rain = 0
KCO2 110908Z 11005KT 15/10 A3019 RMK A01 T01540099  RH  070%=      5-min Rain = 0
KCO2 110909Z 11005KT 15/10 A302 RMK A01 T01530099  RH  070%=      5-min Rain = 0
KCO2 110910Z 11005KT 15/10 A302 RMK A01 T01540099  RH  070%=      5-min Rain = 0
KCO2 110911Z 11005KT 15/10 A302 RMK A01 T01540099  RH  070%=      5-min Rain = 0
KCO2 110912Z 10005KT 15/10 A302 RMK A01 T01530099  RH  070%=      5-min Rain = 0
KCO2 110913Z 10005KT 15/10 A302 RMK A01 T01530100  RH  070%=      5-min Rain = 0
KCO2 110914Z 10005KT 15/10 A302 RMK A01 T01530099  RH  070%=      5-min Rain = 0
KCO2 110915Z 10005KT 15/10 A302 RMK A01 T01540099  RH  070%=      5-min Rain = 0
KCO2 110916Z 10005KT 15/10 A302 RMK A01 T01540100  RH  070%=      5-min Rain = 0
KCO2 110917Z 10005KT 15/10 A302 RMK A01 T01540099  RH  070%=      5-min Rain = 0
KCO2 110918Z 10005KT 15/10 A302 RMK A01 T01540100  RH  070%=      5-min Rain = 0
KCO2 110919Z 10005KT 15/10 A302 RMK A01 T01540100  RH  070%=      5-min Rain = 0
KCO2 110920Z 10005KT 15/10 A302 RMK A01 T01540100  RH  070%=      5-min Rain = 0
KCO2 110921Z 10005KT 15/10 A3019 RMK A01 T01540100  RH  070%=      5-min Rain = 0
KCO2 110922Z 11005KT 15/10 A3019 RMK A01 T01540100  RH  070%=      5-min Rain = 0
KCO2 110923Z 11004KT 15/10 A3019 RMK A01 T01540099  RH  070%=      5-min Rain = 0
KCO2 110924Z 11004KT 15/10 A3019 RMK A01 T01540099  RH  070%=      5-min Rain = 0
KCO2 110925Z 11004KT 15/10 A3019 RMK A01 T01540100  RH  070%=      5-min Rain = 0
KCO2 110926Z 11004KT 15/10 A3019 RMK A01 T01540100  RH  070%=      5-min Rain = 0
KCO2 110927Z 11004KT 15/10 A3019 RMK A01 T01540100  RH  070%=      5-min Rain = 0
KCO2 110928Z 11004KT 15/10 A3019 RMK A01 T01540100  RH  070%=      5-min Rain = 0
KCO2 110929Z 11004KT 15/10 A3019 RMK A01 T01540100  RH  070%=      5-min Rain = 0
KCO2 110930Z 11004KT 15/10 A3019 RMK A01 T01530099  RH  070%=      5-min Rain = 0
KCO2 110931Z 11004KT 15/10 A3019 RMK A01 T01530099  RH  070%=      5-min Rain = 0
KCO2 110932Z 11004KT 15/10 A3019 RMK A01 T01530099  RH  070%=      5-min Rain = 0
KCO2 110933Z 11003KT 15/10 A3019 RMK A01 T01520099  RH  070%=      5-min Rain = 0
KCO2 110934Z 11004KT 15/10 A3019 RMK A01 T01530099  RH  070%=      5-min Rain = 0
KCO2 110935Z 11004KT 15/10 A3019 RMK A01 T01520099  RH  070%=      5-min Rain = 0
KCO2 110936Z 11004KT 15/10 A3019 RMK A01 T01530099  RH  070%=      5-min Rain = 0
KCO2 110937Z 11004KT 15/10 A3019 RMK A01 T01540099  RH  070%=      5-min Rain = 0
KCO2 110938Z 12004KT 15/10 A3019 RMK A01 T01540099  RH  070%=      5-min Rain = 0
KCO2 110939Z 12004KT 15/10 A3019 RMK A01 T01540099  RH  070%=      5-min Rain = 0
KCO2 110940Z 11004KT 15/10 A3019 RMK A01 T01540099  RH  070%=      5-min Rain = 0
KCO2 110941Z 11003KT 16/10 A3019 RMK A01 T01550099  RH  069%=      5-min Rain = 0
KCO2 110942Z 12004KT 16/10 A3019 RMK A01 T01550099  RH  069%=      5-min Rain = 0
KCO2 110943Z 12004KT 16/10 A3019 RMK A01 T01550099  RH  069%=      5-min Rain = 0
KCO2 110944Z 12004KT 16/10 A3019 RMK A01 T01550099  RH  069%=      5-min Rain = 0
KCO2 110945Z 12003KT 16/10 A3019 RMK A01 T01550100  RH  069%=      5-min Rain = 0
KCO2 110946Z 12003KT 16/10 A3019 RMK A01 T01550099  RH  069%=      5-min Rain = 0
KCO2 110947Z 12004KT 16/10 A3019 RMK A01 T01550099  RH  069%=      5-min Rain = 0
KCO2 110948Z 12003KT 16/10 A3019 RMK A01 T01550099  RH  069%=      5-min Rain = 0
KCO2 110949Z 12003KT 16/10 A3019 RMK A01 T01550099  RH  069%=      5-min Rain = 0
KCO2 110950Z 12003KT 16/10 A3019 RMK A01 T01550099  RH  069%=      5-min Rain = 0
KCO2 110951Z 11003KT 16/10 A3019 RMK A01 T01550100  RH  069%=      5-min Rain = 0
KCO2 110952Z 11003KT 15/10 A3019 RMK A01 T01540099  RH  070%=      5-min Rain = 0
KCO2 110953Z 11003KT 15/10 A3019 RMK A01 T01540099  RH  070%=      5-min Rain = 0
KCO2 110954Z 11003KT 15/10 A3019 RMK A01 T01530099  RH  070%=      5-min Rain = 0
KCO2 110955Z 11003KT 15/10 A3019 RMK A01 T01530099  RH  070%=      5-min Rain = 0
KCO2 110956Z 12003KT 15/10 A3019 RMK A01 T01530099  RH  070%=      5-min Rain = 0
KCO2 110957Z 11003KT 15/10 A3019 RMK A01 T01530099  RH  070%=      5-min Rain = 0
KCO2 110958Z 12003KT 15/10 A3019 RMK A01 T01530099  RH  070%=      5-min Rain = 0
KCO2 110959Z 12003KT 15/10 A3019 RMK A01 T01530099  RH  070%=      5-min Rain = 0
KCO2 111000Z 12003KT 15/10 A3019 RMK A01 T01520099  RH  070%=      5-min Rain = 0
KCO2 111001Z 13003KT 15/10 A3019 RMK A01 T01520100  RH  071%=      5-min Rain = 0
KCO2 111002Z 13003KT 15/10 A3019 RMK A01 T01520099  RH  071%=      5-min Rain = 0
KCO2 111003Z 13003KT 15/10 A3019 RMK A01 T01520100  RH  071%=      5-min Rain = 0
KCO2 111004Z 13003KT 15/10 A3019 RMK A01 T01520099  RH  071%=      5-min Rain = 0
KCO2 111005Z 13003KT 15/10 A3019 RMK A01 T01520100  RH  071%=      5-min Rain = 0
KCO2 111006Z 13003KT 15/10 A3019 RMK A01 T01530099  RH  070%=      5-min Rain = 0
KCO2 111007Z 13002KT 16/10 A3019 RMK A01 T01550100  RH  070%=      5-min Rain = 0
KCO2 111008Z 13003KT 16/10 A3019 RMK A01 T01550100  RH  069%=      5-min Rain = 0
KCO2 111009Z 13003KT 16/10 A302 RMK A01 T01560100  RH  069%=      5-min Rain = 0
KCO2 111010Z 13003KT 16/10 A302 RMK A01 T01570100  RH  069%=      5-min Rain = 0
KCO2 111011Z 13003KT 16/10 A302 RMK A01 T01580100  RH  068%=      5-min Rain = 0
KCO2 111012Z 12003KT 16/10 A302 RMK A01 T01580100  RH  068%=      5-min Rain = 0
KCO2 111013Z 12003KT 16/10 A302 RMK A01 T01580100  RH  068%=      5-min Rain = 0
KCO2 111014Z 12003KT 16/10 A302 RMK A01 T01580100  RH  069%=      5-min Rain = 0
KCO2 111015Z 12003KT 16/10 A302 RMK A01 T01570100  RH  069%=      5-min Rain = 0
KCO2 111016Z 11004KT 16/10 A302 RMK A01 T01570101  RH  069%=      5-min Rain = 0
KCO2 111017Z 11003KT 16/10 A3019 RMK A01 T01560100  RH  069%=      5-min Rain = 0
KCO2 111018Z 11003KT 15/10 A3019 RMK A01 T01540100  RH  070%=      5-min Rain = 0
KCO2 111019Z 11003KT 15/10 A3019 RMK A01 T01530100  RH  070%=      5-min Rain = 0
KCO2 111020Z 11003KT 15/10 A3019 RMK A01 T01520100  RH  071%=      5-min Rain = 0
KCO2 111021Z 11003KT 15/10 A3019 RMK A01 T01510100  RH  071%=      5-min Rain = 0
KCO2 111022Z 11003KT 15/10 A3019 RMK A01 T01500099  RH  071%=      5-min Rain = 0
KCO2 111023Z 12003KT 15/10 A3019 RMK A01 T01500100  RH  072%=      5-min Rain = 0
KCO2 111024Z 12004KT 15/10 A3019 RMK A01 T01500100  RH  072%=      5-min Rain = 0
KCO2 111025Z 11003KT 15/10 A3019 RMK A01 T01500099  RH  072%=      5-min Rain = 0
KCO2 111026Z 11003KT 15/10 A3019 RMK A01 T01500100  RH  072%=      5-min Rain = 0
KCO2 111027Z 12003KT 15/10 A3019 RMK A01 T01500100  RH  072%=      5-min Rain = 0
KCO2 111028Z 13003KT 15/10 A3019 RMK A01 T01510100  RH  071%=      5-min Rain = 0
KCO2 111029Z 11003KT 15/10 A3019 RMK A01 T01510100  RH  071%=      5-min Rain = 0
KCO2 111030Z 11003KT 15/10 A3019 RMK A01 T01500100  RH  072%=      5-min Rain = 0
KCO2 111031Z 12002KT 15/10 A3019 RMK A01 T01500100  RH  072%=      5-min Rain = 0
KCO2 111032Z 12003KT 15/10 A3019 RMK A01 T01500100  RH  072%=      5-min Rain = 0
KCO2 111033Z 12003KT 15/10 A3019 RMK A01 T01490099  RH  072%=      5-min Rain = 0
KCO2 111034Z 12003KT 15/10 A3019 RMK A01 T01480099  RH  072%=      5-min Rain = 0
KCO2 111035Z 13003KT 15/10 A3019 RMK A01 T01470100  RH  073%=      5-min Rain = 0
KCO2 111036Z 13003KT 15/10 A3019 RMK A01 T01470099  RH  073%=      5-min Rain = 0
KCO2 111037Z 13003KT 15/10 A3019 RMK A01 T01460099  RH  073%=      5-min Rain = 0
KCO2 111038Z 12003KT 15/10 A3019 RMK A01 T01470099  RH  073%=      5-min Rain = 0
KCO2 111039Z 12003KT 15/10 A3019 RMK A01 T01470099  RH  073%=      5-min Rain = 0
KCO2 111040Z 12003KT 15/10 A3019 RMK A01 T01480099  RH  073%=      5-min Rain = 0
KCO2 111041Z 12003KT 15/10 A3019 RMK A01 T01480099  RH  072%=      5-min Rain = 0
KCO2 111042Z 13003KT 15/10 A3019 RMK A01 T01470099  RH  072%=      5-min Rain = 0
KCO2 111043Z 13003KT 15/10 A3019 RMK A01 T01470099  RH  073%=      5-min Rain = 0
KCO2 111044Z 13002KT 15/10 A3019 RMK A01 T01470099  RH  073%=      5-min Rain = 0
KCO2 111045Z 13002KT 15/10 A3019 RMK A01 T01470099  RH  073%=      5-min Rain = 0
KCO2 111046Z 14002KT 15/10 A3019 RMK A01 T01460099  RH  073%=      5-min Rain = 0
KCO2 111047Z 14002KT 15/10 A3019 RMK A01 T01460099  RH  073%=      5-min Rain = 0
KCO2 111048Z 14002KT 15/10 A3019 RMK A01 T01460099  RH  073%=      5-min Rain = 0
KCO2 111049Z 15002KT 15/10 A3019 RMK A01 T01460099  RH  073%=      5-min Rain = 0
KCO2 111050Z 15002KT 15/10 A3019 RMK A01 T01460099  RH  073%=      5-min Rain = 0
KCO2 111051Z 15002KT 15/10 A3019 RMK A01 T01470099  RH  073%=      5-min Rain = 0
KCO2 111052Z 15003KT 15/10 A3019 RMK A01 T01470099  RH  073%=      5-min Rain = 0
KCO2 111053Z 15002KT 15/10 A3019 RMK A01 T01470099  RH  073%=      5-min Rain = 0
KCO2 111054Z 15002KT 15/10 A3019 RMK A01 T01470099  RH  073%=      5-min Rain = 0
KCO2 111055Z 15002KT 15/10 A3019 RMK A01 T01480099  RH  073%=      5-min Rain = 0
KCO2 111056Z 15002KT 15/10 A3019 RMK A01 T01490100  RH  072%=      5-min Rain = 0
KCO2 111057Z 15002KT 15/10 A3019 RMK A01 T01500100  RH  072%=      5-min Rain = 0
KCO2 111058Z 14002KT 15/10 A3019 RMK A01 T01510100  RH  071%=      5-min Rain = 0
KCO2 111059Z 14002KT 15/10 A3019 RMK A01 T01510100  RH  071%=      5-min Rain = 0
KCO2 111100Z 13002KT 15/10 A3019 RMK A01 T01510100  RH  071%=      5-min Rain = 0
KCO2 111101Z 13002KT 15/10 A3019 RMK A01 T01510100  RH  072%=      5-min Rain = 0
KCO2 111102Z 13002KT 15/10 A3019 RMK A01 T01490099  RH  072%=      5-min Rain = 0
KCO2 111103Z 12002KT 15/10 A3019 RMK A01 T01490099  RH  072%=      5-min Rain = 0
KCO2 111104Z 12002KT 15/10 A3019 RMK A01 T01480099  RH  073%=      5-min Rain = 0
KCO2 111105Z 11002KT 15/10 A3019 RMK A01 T01470099  RH  073%=      5-min Rain = 0
KCO2 111106Z 11002KT 15/10 A3019 RMK A01 T01460099  RH  073%=      5-min Rain = 0
KCO2 111107Z 11002KT 15/10 A3019 RMK A01 T01460099  RH  074%=      5-min Rain = 0
KCO2 111108Z 11002KT 15/10 A3019 RMK A01 T01450099  RH  074%=      5-min Rain = 0
KCO2 111109Z 10002KT 15/10 A3019 RMK A01 T01450099  RH  074%=      5-min Rain = 0
KCO2 111110Z 10002KT 14/10 A3019 RMK A01 T01440099  RH  074%=      5-min Rain = 0
KCO2 111111Z 10003KT 14/10 A3019 RMK A01 T01440099  RH  074%=      5-min Rain = 0
KCO2 111112Z 09003KT 14/10 A302 RMK A01 T01430099  RH  075%=      5-min Rain = 0
KCO2 111113Z 09003KT 14/10 A302 RMK A01 T01430099  RH  075%=      5-min Rain = 0
KCO2 111114Z 09003KT 14/10 A302 RMK A01 T01430099  RH  075%=      5-min Rain = 0
KCO2 111115Z 09003KT 14/10 A302 RMK A01 T01420099  RH  075%=      5-min Rain = 0
KCO2 111116Z 09003KT 14/10 A302 RMK A01 T01420099  RH  075%=      5-min Rain = 0
KCO2 111117Z 10003KT 14/10 A302 RMK A01 T01420099  RH  075%=      5-min Rain = 0
KCO2 111118Z 09003KT 14/10 A302 RMK A01 T01410098  RH  075%=      5-min Rain = 0
KCO2 111119Z 09003KT 14/10 A302 RMK A01 T01410098  RH  076%=      5-min Rain = 0
KCO2 111120Z 09003KT 14/10 A302 RMK A01 T01400098  RH  076%=      5-min Rain = 0
KCO2 111121Z 09003KT 14/10 A302 RMK A01 T01400098  RH  076%=      5-min Rain = 0
KCO2 111122Z 09003KT 14/10 A302 RMK A01 T01400098  RH  076%=      5-min Rain = 0
KCO2 111123Z 09003KT 14/10 A302 RMK A01 T01390097  RH  076%=      5-min Rain = 0
KCO2 111124Z 08003KT 14/10 A302 RMK A01 T01380097  RH  076%=      5-min Rain = 0
KCO2 111125Z 08003KT 14/10 A302 RMK A01 T01370097  RH  077%=      5-min Rain = 0
KCO2 111126Z 08003KT 14/10 A302 RMK A01 T01360097  RH  077%=      5-min Rain = 0
KCO2 111127Z 08003KT 14/10 A302 RMK A01 T01360096  RH  077%=      5-min Rain = 0
KCO2 111128Z 08003KT 14/10 A302 RMK A01 T01350096  RH  077%=      5-min Rain = 0
KCO2 111129Z 08004KT 13/10 A302 RMK A01 T01330096  RH  078%=      5-min Rain = 0
KCO2 111130Z 08004KT 13/10 A302 RMK A01 T01330096  RH  078%=      5-min Rain = 0
KCO2 111131Z 08004KT 13/10 A302 RMK A01 T01320096  RH  079%=      5-min Rain = 0
KCO2 111132Z 08004KT 13/10 A302 RMK A01 T01320096  RH  079%=      5-min Rain = 0
KCO2 111133Z 08004KT 13/10 A302 RMK A01 T01320096  RH  079%=      5-min Rain = 0
KCO2 111134Z 08004KT 13/10 A302 RMK A01 T01320097  RH  079%=      5-min Rain = 0
KCO2 111135Z 08004KT 13/10 A302 RMK A01 T01330097  RH  079%=      5-min Rain = 0
KCO2 111136Z 08004KT 13/10 A302 RMK A01 T01340097  RH  079%=      5-min Rain = 0
KCO2 111137Z 08004KT 13/10 A302 RMK A01 T01340097  RH  078%=      5-min Rain = 0
KCO2 111138Z 08004KT 13/10 A302 RMK A01 T01340098  RH  078%=      5-min Rain = 0
KCO2 111139Z 08004KT 13/10 A302 RMK A01 T01340098  RH  078%=      5-min Rain = 0
KCO2 111140Z 08004KT 13/10 A302 RMK A01 T01340098  RH  078%=      5-min Rain = 0
KCO2 111141Z 08004KT 14/10 A302 RMK A01 T01350098  RH  078%=      5-min Rain = 0
KCO2 111142Z 08004KT 14/10 A302 RMK A01 T01350098  RH  078%=      5-min Rain = 0
KCO2 111143Z 08004KT 14/10 A302 RMK A01 T01350097  RH  078%=      5-min Rain = 0
KCO2 111144Z 08004KT 14/10 A302 RMK A01 T01350097  RH  078%=      5-min Rain = 0
KCO2 111145Z 08004KT 14/10 A302 RMK A01 T01350097  RH  078%=      5-min Rain = 0
KCO2 111146Z 08004KT 13/10 A302 RMK A01 T01340097  RH  078%=      5-min Rain = 0
KCO2 111147Z 08004KT 13/10 A302 RMK A01 T01330096  RH  078%=      5-min Rain = 0
KCO2 111148Z 08004KT 13/10 A302 RMK A01 T01330096  RH  078%=      5-min Rain = 0
KCO2 111149Z 08003KT 13/10 A302 RMK A01 T01320096  RH  079%=      5-min Rain = 0
KCO2 111150Z 08004KT 13/10 A302 RMK A01 T01310096  RH  079%=      5-min Rain = 0
KCO2 111151Z 08004KT 13/10 A302 RMK A01 T01310096  RH  079%=      5-min Rain = 0
KCO2 111152Z 08003KT 13/10 A302 RMK A01 T01310096  RH  079%=      5-min Rain = 0
KCO2 111153Z 08003KT 13/10 A302 RMK A01 T01320097  RH  079%=      5-min Rain = 0
KCO2 111154Z 08003KT 13/10 A302 RMK A01 T01320096  RH  079%=      5-min Rain = 0
KCO2 111155Z 08003KT 13/10 A302 RMK A01 T01330097  RH  079%=      5-min Rain = 0
KCO2 111156Z 09003KT 13/10 A302 RMK A01 T01340097  RH  078%=      5-min Rain = 0
KCO2 111157Z 09002KT 14/10 A302 RMK A01 T01350097  RH  078%=      5-min Rain = 0
KCO2 111158Z 09002KT 14/10 A302 RMK A01 T01350097  RH  077%=      5-min Rain = 0
KCO2 111159Z 09002KT 14/10 A302 RMK A01 T01360096  RH  077%=      5-min Rain = 0
KCO2 111200Z 09002KT 14/10 A302 RMK A01 T01370097  RH  077%=      5-min Rain = 0
KCO2 111201Z 09002KT 14/10 A302 RMK A01 T01370097  RH  077%=      5-min Rain = 0
KCO2 111202Z 09002KT 14/10 A302 RMK A01 T01370097  RH  076%=      5-min Rain = 0
KCO2 111203Z 09002KT 14/10 A302 RMK A01 T01380097  RH  076%=      5-min Rain = 0
KCO2 111204Z 09002KT 14/10 A302 RMK A01 T01370096  RH  076%=      5-min Rain = 0
KCO2 111205Z 09003KT 14/10 A302 RMK A01 T01380097  RH  076%=      5-min Rain = 0
KCO2 111206Z 09003KT 14/10 A302 RMK A01 T01380096  RH  076%=      5-min Rain = 0
KCO2 111207Z 09002KT 14/10 A302 RMK A01 T01370097  RH  077%=      5-min Rain = 0
KCO2 111208Z 08003KT 14/10 A302 RMK A01 T01370097  RH  077%=      5-min Rain = 0
KCO2 111209Z 08002KT 14/10 A302 RMK A01 T01360097  RH  077%=      5-min Rain = 0
KCO2 111210Z 08002KT 14/10 A302 RMK A01 T01370097  RH  077%=      5-min Rain = 0
KCO2 111211Z 08002KT 14/10 A302 RMK A01 T01370097  RH  077%=      5-min Rain = 0
KCO2 111212Z 07003KT 14/10 A302 RMK A01 T01370096  RH  077%=      5-min Rain = 0
KCO2 111213Z 07002KT 14/10 A302 RMK A01 T01360096  RH  076%=      5-min Rain = 0
KCO2 111214Z 07003KT 13/09 A302 RMK A01 T01340093  RH  076%=      5-min Rain = 0
KCO2 111215Z 06003KT 13/09 A302 RMK A01 T01290089  RH  076%=      5-min Rain = 0
KCO2 111216Z 06003KT 13/09 A302 RMK A01 T01250089  RH  078%=      5-min Rain = 0
KCO2 111217Z 06003KT 12/09 A302 RMK A01 T01230088  RH  080%=      5-min Rain = 0
KCO2 111218Z 06002KT 12/09 A302 RMK A01 T01210090  RH  081%=      5-min Rain = 0
KCO2 111219Z 07002KT 12/09 A302 RMK A01 T01210091  RH  082%=      5-min Rain = 0
KCO2 111220Z 07002KT 12/09 A302 RMK A01 T01200091  RH  082%=      5-min Rain = 0
KCO2 111221Z 07002KT 12/09 A302 RMK A01 T01190091  RH  083%=      5-min Rain = 0
KCO2 111222Z 06002KT 12/09 A302 RMK A01 T01190091  RH  083%=      5-min Rain = 0
KCO2 111223Z 06002KT 12/09 A302 RMK A01 T01190092  RH  084%=      5-min Rain = 0
KCO2 111224Z 06003KT 12/09 A302 RMK A01 T01190092  RH  083%=      5-min Rain = 0
KCO2 111225Z 06003KT 12/09 A302 RMK A01 T01210092  RH  083%=      5-min Rain = 0
KCO2 111226Z 06003KT 12/09 A302 RMK A01 T01230093  RH  082%=      5-min Rain = 0
KCO2 111227Z 06003KT 12/09 A302 RMK A01 T01240092  RH  081%=      5-min Rain = 0
KCO2 111228Z 06003KT 12/09 A302 RMK A01 T01240091  RH  080%=      5-min Rain = 0
KCO2 111229Z 06003KT 12/09 A302 RMK A01 T01240090  RH  080%=      5-min Rain = 0
KCO2 111230Z 06003KT 12/09 A3021 RMK A01 T01230090  RH  080%=      5-min Rain = 0
KCO2 111231Z 06003KT 12/09 A3021 RMK A01 T01220090  RH  081%=      5-min Rain = 0
KCO2 111232Z 06003KT 12/09 A3021 RMK A01 T01220090  RH  081%=      5-min Rain = 0
KCO2 111233Z 06003KT 12/09 A3021 RMK A01 T01210091  RH  082%=      5-min Rain = 0
KCO2 111234Z 07003KT 12/09 A3021 RMK A01 T01210091  RH  082%=      5-min Rain = 0
KCO2 111235Z 07003KT 12/09 A3021 RMK A01 T01210091  RH  082%=      5-min Rain = 0
KCO2 111236Z 07003KT 12/09 A3021 RMK A01 T01210091  RH  082%=      5-min Rain = 0
KCO2 111237Z 07003KT 12/09 A3021 RMK A01 T01210091  RH  082%=      5-min Rain = 0
KCO2 111238Z 08003KT 12/09 A3021 RMK A01 T01210091  RH  082%=      5-min Rain = 0
KCO2 111239Z 08003KT 12/09 A3021 RMK A01 T01210091  RH  082%=      5-min Rain = 0
KCO2 111240Z 08003KT 12/09 A3021 RMK A01 T01210091  RH  082%=      5-min Rain = 0
KCO2 111241Z 08003KT 12/09 A3021 RMK A01 T01210091  RH  082%=      5-min Rain = 0
KCO2 111242Z 08003KT 12/09 A3021 RMK A01 T01220092  RH  082%=      5-min Rain = 0
KCO2 111243Z 07003KT 12/09 A3021 RMK A01 T01220092  RH  082%=      5-min Rain = 0
KCO2 111244Z 07003KT 12/09 A3021 RMK A01 T01230093  RH  082%=      5-min Rain = 0
KCO2 111245Z 07003KT 12/09 A3021 RMK A01 T01230093  RH  082%=      5-min Rain = 0
KCO2 111246Z 07003KT 12/09 A3021 RMK A01 T01240093  RH  081%=      5-min Rain = 0
KCO2 111247Z 07003KT 13/09 A3021 RMK A01 T01250094  RH  081%=      5-min Rain = 0
KCO2 111248Z 07003KT 13/09 A3021 RMK A01 T01250094  RH  081%=      5-min Rain = 0
KCO2 111249Z 07003KT 13/09 A3021 RMK A01 T01260093  RH  080%=      5-min Rain = 0
KCO2 111250Z 07003KT 13/09 A3021 RMK A01 T01270094  RH  080%=      5-min Rain = 0
KCO2 111251Z 07003KT 13/09 A3021 RMK A01 T01270093  RH  080%=      5-min Rain = 0
KCO2 111252Z 07003KT 13/09 A3021 RMK A01 T01270094  RH  080%=      5-min Rain = 0
KCO2 111253Z 07003KT 13/09 A3021 RMK A01 T01260094  RH  081%=      5-min Rain = 0
KCO2 111254Z 07003KT 13/10 A3021 RMK A01 T01270095  RH  081%=      5-min Rain = 0
KCO2 111255Z 07003KT 13/10 A3021 RMK A01 T01270095  RH  081%=      5-min Rain = 0
KCO2 111256Z 07003KT 13/10 A3021 RMK A01 T01280095  RH  080%=      5-min Rain = 0
KCO2 111257Z 06003KT 13/10 A3021 RMK A01 T01290096  RH  080%=      5-min Rain = 0
KCO2 111258Z 06003KT 13/10 A3021 RMK A01 T01290096  RH  080%=      5-min Rain = 0
KCO2 111259Z 06003KT 13/10 A3021 RMK A01 T01300096  RH  080%=      5-min Rain = 0
KCO2 111300Z 06003KT 13/10 A3021 RMK A01 T01310096  RH  079%=      5-min Rain = 0
KCO2 111301Z 06002KT 13/10 A3021 RMK A01 T01320096  RH  079%=      5-min Rain = 0
KCO2 111302Z 06002KT 13/10 A3021 RMK A01 T01330097  RH  079%=      5-min Rain = 0
KCO2 111303Z 05002KT 13/10 A3021 RMK A01 T01340097  RH  079%=      5-min Rain = 0
KCO2 111304Z 05002KT 14/10 A3021 RMK A01 T01350098  RH  078%=      5-min Rain = 0
KCO2 111305Z 06002KT 14/10 A3021 RMK A01 T01360098  RH  078%=      5-min Rain = 0
KCO2 111306Z 06003KT 14/10 A3021 RMK A01 T01370099  RH  078%=      5-min Rain = 0
KCO2 111307Z 06003KT 14/10 A3021 RMK A01 T01370099  RH  078%=      5-min Rain = 0
KCO2 111308Z 06003KT 14/10 A3021 RMK A01 T01380100  RH  078%=      5-min Rain = 0
KCO2 111309Z 06003KT 14/10 A3021 RMK A01 T01390101  RH  078%=      5-min Rain = 0
KCO2 111310Z 06003KT 14/10 A3021 RMK A01 T01400102  RH  078%=      5-min Rain = 0
KCO2 111311Z 05003KT 14/10 A3021 RMK A01 T01410102  RH  077%=      5-min Rain = 0
KCO2 111312Z 06003KT 14/10 A3021 RMK A01 T01420103  RH  077%=      5-min Rain = 0
KCO2 111313Z 06003KT 14/10 A3021 RMK A01 T01440103  RH  077%=      5-min Rain = 0
KCO2 111314Z 06004KT 15/10 A3021 RMK A01 T01450104  RH  076%=      5-min Rain = 0
KCO2 111315Z 06004KT 15/11 A3021 RMK A01 T01460105  RH  076%=      5-min Rain = 0
KCO2 111316Z 06004KT 15/11 A3021 RMK A01 T01470105  RH  076%=      5-min Rain = 0
KCO2 111317Z 07004KT 15/11 A3021 RMK A01 T01480106  RH  076%=      5-min Rain = 0
KCO2 111318Z 07004KT 15/11 A3021 RMK A01 T01490107  RH  076%=      5-min Rain = 0
KCO2 111319Z 07004KT 15/11 A3021 RMK A01 T01510108  RH  076%=      5-min Rain = 0
KCO2 111320Z 07004KT 15/11 A3021 RMK A01 T01520107  RH  075%=      5-min Rain = 0
KCO2 111321Z 07004KT 15/11 A3021 RMK A01 T01530107  RH  074%=      5-min Rain = 0
KCO2 111322Z 07003KT 15/11 A3021 RMK A01 T01540107  RH  074%=      5-min Rain = 0
KCO2 111323Z 07003KT 16/11 A3021 RMK A01 T01550108  RH  074%=      5-min Rain = 0
KCO2 111324Z 07003KT 16/11 A3021 RMK A01 T01560107  RH  073%=      5-min Rain = 0
KCO2 111325Z 07004KT 16/11 A3021 RMK A01 T01570108  RH  072%=      5-min Rain = 0
KCO2 111326Z 08004KT 16/11 A3021 RMK A01 T01580107  RH  072%=      5-min Rain = 0
KCO2 111327Z 08004KT 16/11 A3021 RMK A01 T01600108  RH  071%=      5-min Rain = 0
KCO2 111328Z 08003KT 16/11 A3021 RMK A01 T01600107  RH  071%=      5-min Rain = 0
KCO2 111329Z 08003KT 16/11 A3021 RMK A01 T01620108  RH  070%=      5-min Rain = 0
KCO2 111330Z 08003KT 16/11 A3021 RMK A01 T01620107  RH  070%=      5-min Rain = 0
KCO2 111331Z 08003KT 16/11 A3021 RMK A01 T01630107  RH  069%=      5-min Rain = 0
KCO2 111332Z 08003KT 16/11 A3021 RMK A01 T01640108  RH  070%=      5-min Rain = 0
KCO2 111333Z 08002KT 16/11 A3021 RMK A01 T01640109  RH  070%=      5-min Rain = 0
KCO2 111334Z 08002KT 17/11 A3021 RMK A01 T01650111  RH  070%=      5-min Rain = 0
KCO2 111335Z 08002KT 17/11 A3021 RMK A01 T01660109  RH  069%=      5-min Rain = 0
KCO2 111336Z 09002KT 17/11 A3021 RMK A01 T01670110  RH  069%=      5-min Rain = 0
KCO2 111337Z 09002KT 17/11 A3021 RMK A01 T01680110  RH  069%=      5-min Rain = 0
KCO2 111338Z 08002KT 17/11 A3021 RMK A01 T01680111  RH  069%=      5-min Rain = 0
KCO2 111339Z 09002KT 17/11 A3021 RMK A01 T01690112  RH  069%=      5-min Rain = 0
KCO2 111340Z 09002KT 17/11 A3021 RMK A01 T01700112  RH  068%=      5-min Rain = 0
KCO2 111341Z 09002KT 17/11 A3021 RMK A01 T01710111  RH  068%=      5-min Rain = 0
KCO2 111342Z 09002KT 17/11 A3021 RMK A01 T01720109  RH  067%=      5-min Rain = 0
KCO2 111343Z 09001KT 17/11 A3021 RMK A01 T01730110  RH  067%=      5-min Rain = 0
KCO2 111344Z 10001KT 17/11 A3021 RMK A01 T01740113  RH  067%=      5-min Rain = 0
KCO2 111345Z 10002KT 18/11 A3021 RMK A01 T01750112  RH  066%=      5-min Rain = 0
KCO2 111346Z 09002KT 18/11 A3022 RMK A01 T01760109  RH  065%=      5-min Rain = 0
KCO2 111347Z 09001KT 18/11 A3022 RMK A01 T01760109  RH  065%=      5-min Rain = 0
KCO2 111348Z 09001KT 18/11 A3022 RMK A01 T01770108  RH  064%=      5-min Rain = 0
KCO2 111349Z 09002KT 18/11 A3022 RMK A01 T01770110  RH  065%=      5-min Rain = 0
KCO2 111350Z 08001KT 18/11 A3022 RMK A01 T01780110  RH  065%=      5-min Rain = 0
KCO2 111351Z 10001KT 18/11 A3022 RMK A01 T01790112  RH  065%=      5-min Rain = 0
KCO2 111352Z 09002KT 18/11 A3022 RMK A01 T01800111  RH  064%=      5-min Rain = 0
KCO2 111353Z 09002KT 18/11 A3022 RMK A01 T01810112  RH  064%=      5-min Rain = 0
KCO2 111354Z 08002KT 18/11 A3022 RMK A01 T01820111  RH  063%=      5-min Rain = 0
KCO2 111355Z 10002KT 18/11 A3022 RMK A01 T01820113  RH  064%=      5-min Rain = 0
KCO2 111356Z 08001KT 18/11 A3022 RMK A01 T01840112  RH  063%=      5-min Rain = 0
KCO2 111357Z 09001KT 19/11 A3022 RMK A01 T01850112  RH  062%=      5-min Rain = 0
KCO2 111358Z 09002KT 19/11 A3022 RMK A01 T01860111  RH  062%=      5-min Rain = 0
KCO2 111359Z 09001KT 19/11 A3022 RMK A01 T01860111  RH  062%=      5-min Rain = 0
KCO2 111400Z 07001KT 19/11 A3022 RMK A01 T01850112  RH  062%=      5-min Rain = 0
KCO2 111401Z 06001KT 19/11 A3022 RMK A01 T01850111  RH  062%=      5-min Rain = 0
KCO2 111402Z 06001KT 19/11 A3022 RMK A01 T01860111  RH  062%=      5-min Rain = 0
KCO2 111403Z 06001KT 19/11 A3022 RMK A01 T01870109  RH  061%=      5-min Rain = 0
KCO2 111404Z 08002KT 19/11 A3022 RMK A01 T01870111  RH  061%=      5-min Rain = 0
KCO2 111405Z 07001KT 19/11 A3022 RMK A01 T01890111  RH  060%=      5-min Rain = 0
KCO2 111406Z 08001KT 19/11 A3022 RMK A01 T01900111  RH  060%=      5-min Rain = 0
KCO2 111407Z 03001KT 19/11 A3022 RMK A01 T01900108  RH  059%=      5-min Rain = 0
KCO2 111408Z 05001KT 19/11 A3022 RMK A01 T01920110  RH  059%=      5-min Rain = 0
KCO2 111409Z 06001KT 19/11 A3022 RMK A01 T01920111  RH  059%=      5-min Rain = 0
KCO2 111410Z 05001KT 19/11 A3022 RMK A01 T01930110  RH  058%=      5-min Rain = 0
KCO2 111411Z 06000KT 19/11 A3022 RMK A01 T01930109  RH  058%=      5-min Rain = 0
KCO2 111412Z 00000KT 19/11 A3022 RMK A01 T01940109  RH  058%=      5-min Rain = 0
KCO2 111413Z 00000KT 20/11 A3022 RMK A01 T01950109  RH  058%=      5-min Rain = 0
KCO2 111414Z 00000KT 20/11 A3022 RMK A01 T01960110  RH  057%=      5-min Rain = 0
KCO2 111415Z 23000KT 20/11 A3022 RMK A01 T01960108  RH  057%=      5-min Rain = 0
KCO2 111416Z 25000KT 20/11 A3022 RMK A01 T01960108  RH  057%=      5-min Rain = 0
KCO2 111417Z 26000KT 20/11 A3022 RMK A01 T01960108  RH  057%=      5-min Rain = 0
KCO2 111418Z 00000KT 20/11 A3022 RMK A01 T01960108  RH  057%=      5-min Rain = 0
KCO2 111419Z 11000KT 20/11 A3022 RMK A01 T01970110  RH  057%=      5-min Rain = 0
KCO2 111420Z 14001KT 20/11 A3022 RMK A01 T02000112  RH  057%=      5-min Rain = 0
KCO2 111421Z 14001KT 20/11 A3022 RMK A01 T02010110  RH  056%=      5-min Rain = 0
KCO2 111422Z 16001KT 20/11 A3022 RMK A01 T02020108  RH  055%=      5-min Rain = 0
KCO2 111423Z 17001KT 20/11 A3022 RMK A01 T02020109  RH  055%=      5-min Rain = 0
KCO2 111424Z 14001KT 20/11 A3022 RMK A01 T02030108  RH  054%=      5-min Rain = 0
KCO2 111425Z 10001KT 20/11 A3022 RMK A01 T02030110  RH  055%=      5-min Rain = 0
KCO2 111426Z 09002KT 20/11 A3022 RMK A01 T02030110  RH  055%=      5-min Rain = 0
KCO2 111427Z 10001KT 20/11 A3022 RMK A01 T02030109  RH  054%=      5-min Rain = 0
KCO2 111428Z 11002KT 20/11 A3022 RMK A01 T02030110  RH  055%=      5-min Rain = 0
KCO2 111429Z 13002KT 20/11 A3022 RMK A01 T02030110  RH  055%=      5-min Rain = 0
KCO2 111430Z 13002KT 20/11 A3022 RMK A01 T02040109  RH  054%=      5-min Rain = 0
KCO2 111431Z 12002KT 20/11 A3022 RMK A01 T02040108  RH  054%=      5-min Rain = 0
KCO2 111432Z 10001KT 20/11 A3022 RMK A01 T02040108  RH  054%=      5-min Rain = 0
KCO2 111433Z 11001KT 20/11 A3022 RMK A01 T02040107  RH  054%=      5-min Rain = 0
KCO2 111434Z 15000KT 21/11 A3022 RMK A01 T02050108  RH  054%=      5-min Rain = 0
KCO2 111435Z 12001KT 21/11 A3022 RMK A01 T02050108  RH  054%=      5-min Rain = 0
KCO2 111436Z 14002KT 21/11 A3022 RMK A01 T02060110  RH  054%=      5-min Rain = 0
KCO2 111437Z 14002KT 21/11 A3022 RMK A01 T02070108  RH  053%=      5-min Rain = 0
KCO2 111438Z 11001KT 21/11 A3022 RMK A01 T02060108  RH  053%=      5-min Rain = 0
KCO2 111439Z 10002KT 21/11 A3022 RMK A01 T02050108  RH  054%=      5-min Rain = 0
KCO2 111440Z 08001KT 21/11 A3022 RMK A01 T02050106  RH  053%=      5-min Rain = 0
KCO2 111441Z 09001KT 21/11 A3022 RMK A01 T02050107  RH  053%=      5-min Rain = 0
KCO2 111442Z 12002KT 21/11 A3022 RMK A01 T02060110  RH  054%=      5-min Rain = 0
KCO2 111443Z 12002KT 21/11 A3022 RMK A01 T02080108  RH  053%=      5-min Rain = 0
KCO2 111444Z 14001KT 21/11 A3022 RMK A01 T02080106  RH  052%=      5-min Rain = 0
KCO2 111445Z 13001KT 21/11 A3022 RMK A01 T02090106  RH  052%=      5-min Rain = 0
KCO2 111446Z 12001KT 21/11 A3022 RMK A01 T02090107  RH  052%=      5-min Rain = 0
KCO2 111447Z 11001KT 21/11 A3022 RMK A01 T02100107  RH  052%=      5-min Rain = 0
KCO2 111448Z 15001KT 21/11 A3022 RMK A01 T02110106  RH  051%=      5-min Rain = 0
KCO2 111449Z 07000KT 21/11 A3022 RMK A01 T02100107  RH  052%=      5-min Rain = 0
KCO2 111450Z 13002KT 21/11 A3022 RMK A01 T02100108  RH  052%=      5-min Rain = 0
KCO2 111451Z 14000KT 21/11 A3022 RMK A01 T02110106  RH  051%=      5-min Rain = 0
KCO2 111452Z 12001KT 21/11 A3022 RMK A01 T02120107  RH  051%=      5-min Rain = 0
KCO2 111453Z 14002KT 21/11 A3022 RMK A01 T02120109  RH  052%=      5-min Rain = 0
KCO2 111454Z 12003KT 21/11 A3022 RMK A01 T02140109  RH  051%=      5-min Rain = 0
KCO2 111455Z 11003KT 22/11 A3022 RMK A01 T02150108  RH  051%=      5-min Rain = 0
KCO2 111456Z 13003KT 22/11 A3022 RMK A01 T02150110  RH  051%=      5-min Rain = 0
KCO2 111457Z 16002KT 22/11 A3022 RMK A01 T02150108  RH  050%=      5-min Rain = 0
KCO2 111458Z 13001KT 22/11 A3022 RMK A01 T02150110  RH  051%=      5-min Rain = 0
KCO2 111459Z 10003KT 22/11 A3022 RMK A01 T02160112  RH  051%=      5-min Rain = 0
KCO2 111500Z 10002KT 22/11 A3022 RMK A01 T02160108  RH  050%=      5-min Rain = 0
KCO2 111501Z 11001KT 22/11 A3022 RMK A01 T02160109  RH  050%=      5-min Rain = 0
KCO2 111502Z 14001KT 22/11 A3022 RMK A01 T02170111  RH  051%=      5-min Rain = 0
KCO2 111503Z 18001KT 22/11 A3022 RMK A01 T02180108  RH  050%=      5-min Rain = 0
KCO2 111504Z 19001KT 22/11 A3022 RMK A01 T02190107  RH  049%=      5-min Rain = 0
KCO2 111505Z 23002KT 22/11 A3022 RMK A01 T02200109  RH  049%=      5-min Rain = 0
KCO2 111506Z 24002KT 22/11 A3022 RMK A01 T02210107  RH  048%=      5-min Rain = 0
KCO2 111507Z 23000KT 22/11 A3022 RMK A01 T02210106  RH  048%=      5-min Rain = 0
KCO2 111508Z 25001KT 22/11 A3022 RMK A01 T02210107  RH  048%=      5-min Rain = 0
KCO2 111509Z 26002KT 22/11 A3022 RMK A01 T02210106  RH  048%=      5-min Rain = 0
KCO2 111510Z 26001KT 22/11 A3022 RMK A01 T02190106  RH  049%=      5-min Rain = 0
KCO2 111511Z 27000KT 22/11 A3022 RMK A01 T02190106  RH  049%=      5-min Rain = 0
KCO2 111512Z 30001KT 22/11 A3022 RMK A01 T02190108  RH  049%=      5-min Rain = 0
KCO2 111513Z 34000KT 22/11 A3022 RMK A01 T02200108  RH  049%=      5-min Rain = 0
KCO2 111514Z 07000KT 22/11 A3022 RMK A01 T02210107  RH  048%=      5-min Rain = 0
KCO2 111515Z 14004KT 22/11 A3022 RMK A01 T02220108  RH  048%=      5-min Rain = 0
KCO2 111516Z 16002KT 22/11 A3022 RMK A01 T02240110  RH  048%=      5-min Rain = 0
KCO2 111517Z 17003KT 23/11 A3022 RMK A01 T02250108  RH  047%=      5-min Rain = 0
KCO2 111518Z 17004KT 23/11 A3022 RMK A01 T02270110  RH  048%=      5-min Rain = 0
KCO2 111519Z 16004KT 23/11 A3022 RMK A01 T02280108  RH  047%=      5-min Rain = 0
KCO2 111520Z 16005KT 23/11 A3022 RMK A01 T02280109  RH  047%=      5-min Rain = 0
KCO2 111521Z 18002KT 23/11 A3022 RMK A01 T02290108  RH  046%=      5-min Rain = 0
KCO2 111522Z 18000KT 23/11 A3022 RMK A01 T02280108  RH  047%=      5-min Rain = 0
KCO2 111523Z 11001KT 23/11 A3022 RMK A01 T02270108  RH  047%=      5-min Rain = 0
KCO2 111524Z 14003KT 23/11 A3022 RMK A01 T02290110  RH  047%=      5-min Rain = 0
KCO2 111525Z 14002KT 23/11 A3022 RMK A01 T02310110  RH  046%=      5-min Rain = 0
KCO2 111526Z 17003KT 23/11 A3022 RMK A01 T02320109  RH  046%=      5-min Rain = 0
KCO2 111527Z 14004KT 23/11 A3022 RMK A01 T02330112  RH  047%=      5-min Rain = 0
KCO2 111528Z 15003KT 23/11 A3022 RMK A01 T02330110  RH  046%=      5-min Rain = 0
KCO2 111529Z 15004KT 23/11 A3022 RMK A01 T02340110  RH  046%=      5-min Rain = 0
KCO2 111530Z 13003KT 23/11 A3022 RMK A01 T02340110  RH  046%=      5-min Rain = 0
KCO2 111531Z 11002KT 23/11 A3022 RMK A01 T02340112  RH  046%=      5-min Rain = 0
KCO2 111532Z 13001KT 24/11 A3022 RMK A01 T02350110  RH  045%=      5-min Rain = 0
KCO2 111533Z 18002KT 24/11 A3022 RMK A01 T02350109  RH  045%=      5-min Rain = 0
KCO2 111534Z 23002KT 24/11 A3022 RMK A01 T02370110  RH  045%=      5-min Rain = 0
KCO2 111535Z 16003KT 24/11 A3022 RMK A01 T02390113  RH  045%=      5-min Rain = 0
KCO2 111536Z 16003KT 24/11 A3022 RMK A01 T02400109  RH  044%=      5-min Rain = 0
KCO2 111537Z 18002KT 24/11 A3022 RMK A01 T02380108  RH  044%=      5-min Rain = 0
KCO2 111538Z 22003KT 24/11 A3022 RMK A01 T02370108  RH  044%=      5-min Rain = 0
KCO2 111539Z 21003KT 24/11 A3022 RMK A01 T02380106  RH  043%=      5-min Rain = 0
KCO2 111540Z 20003KT 24/11 A3022 RMK A01 T02390108  RH  044%=      5-min Rain = 0
KCO2 111541Z 17001KT 24/11 A3023 RMK A01 T02400107  RH  043%=      5-min Rain = 0
KCO2 111542Z 14001KT 24/11 A3023 RMK A01 T02400106  RH  043%=      5-min Rain = 0
KCO2 111543Z 16003KT 24/11 A3023 RMK A01 T02420109  RH  043%=      5-min Rain = 0
KCO2 111544Z 15005KT 24/11 A3022 RMK A01 T02430108  RH  043%=      5-min Rain = 0
KCO2 111545Z 13003KT 24/11 A3022 RMK A01 T02430109  RH  043%=      5-min Rain = 0
KCO2 111546Z 15004KT 24/11 A3022 RMK A01 T02420108  RH  043%=      5-min Rain = 0
KCO2 111547Z 15002KT 24/11 A3022 RMK A01 T02420105  RH  042%=      5-min Rain = 0
KCO2 111548Z 16005KT 24/11 A3022 RMK A01 T02420107  RH  043%=      5-min Rain = 0
KCO2 111549Z 16004KT 24/11 A3022 RMK A01 T02420110  RH  044%=      5-min Rain = 0
KCO2 111550Z 16003KT 24/11 A3022 RMK A01 T02430107  RH  042%=      5-min Rain = 0
KCO2 111551Z 18004KT 24/11 A3022 RMK A01 T02420109  RH  043%=      5-min Rain = 0
KCO2 111552Z 18003KT 24/11 A3022 RMK A01 T02420108  RH  043%=      5-min Rain = 0
KCO2 111553Z 19004KT 24/11 A3022 RMK A01 T02430107  RH  042%=      5-min Rain = 0
KCO2 111554Z 21005KT 24/11 A3022 RMK A01 T02440110  RH  043%=      5-min Rain = 0
KCO2 111555Z 21006KT 24/11 A3022 RMK A01 T02440108  RH  042%=      5-min Rain = 0
KCO2 111556Z 21004KT 24/11 A3022 RMK A01 T02430107  RH  042%=      5-min Rain = 0
KCO2 111557Z 21004KT 24/11 A3022 RMK A01 T02420107  RH  042%=      5-min Rain = 0
KCO2 111558Z 22003KT 24/10 A3022 RMK A01 T02420103  RH  041%=      5-min Rain = 0
KCO2 111559Z 23002KT 24/10 A3022 RMK A01 T02410102  RH  041%=      5-min Rain = 0
KCO2 111600Z 20002KT 24/10 A3022 RMK A01 T02400104  RH  042%=      5-min Rain = 0
KCO2 111601Z 17003KT 24/10 A3022 RMK A01 T02420104  RH  042%=      5-min Rain = 0
KCO2 111602Z 15004KT 24/11 A3022 RMK A01 T02440105  RH  041%=      5-min Rain = 0
KCO2 111603Z 15002KT 24/11 A3022 RMK A01 T02440107  RH  042%=      5-min Rain = 0
KCO2 111604Z 28003KT 24/11 A3022 RMK A01 T02440106  RH  042%=      5-min Rain = 0
KCO2 111605Z 29002KT 24/10 A3022 RMK A01 T02430102  RH  041%=      5-min Rain = 0
KCO2 111606Z 33002KT 24/10 A3022 RMK A01 T02430103  RH  041%=      5-min Rain = 0
KCO2 111607Z 27002KT 25/11 A3022 RMK A01 T02450105  RH  041%=      5-min Rain = 0
KCO2 111608Z 23005KT 25/10 A3022 RMK A01 T02470103  RH  040%=      5-min Rain = 0
KCO2 111609Z 22005KT 25/10 A3022 RMK A01 T02480104  RH  040%=      5-min Rain = 0
KCO2 111610Z 22003KT 25/10 A3022 RMK A01 T02470103  RH  040%=      5-min Rain = 0
KCO2 111611Z 24002KT 25/10 A3022 RMK A01 T02470103  RH  040%=      5-min Rain = 0
KCO2 111612Z 25003KT 25/10 A3022 RMK A01 T02470102  RH  040%=      5-min Rain = 0
KCO2 111613Z 25004KT 25/10 A3022 RMK A01 T02460103  RH  040%=      5-min Rain = 0
KCO2 111614Z 27004KT 25/10 A3022 RMK A01 T02450103  RH  041%=      5-min Rain = 0
KCO2 111615Z 25004KT 25/10 A3022 RMK A01 T02460104  RH  041%=      5-min Rain = 0
KCO2 111616Z 24003KT 25/10 A3022 RMK A01 T02480104  RH  040%=      5-min Rain = 0
KCO2 111617Z 30003KT 25/10 A3022 RMK A01 T02490104  RH  040%=      5-min Rain = 0
KCO2 111618Z 30003KT 25/10 A3022 RMK A01 T02500104  RH  040%=      5-min Rain = 0
KCO2 111619Z 22004KT 25/10 A3022 RMK A01 T02500104  RH  040%=      5-min Rain = 0
KCO2 111620Z 21005KT 25/11 A3022 RMK A01 T02510106  RH  040%=      5-min Rain = 0
KCO2 111621Z 20005KT 25/11 A3022 RMK A01 T02510105  RH  040%=      5-min Rain = 0
KCO2 111622Z 22004KT 25/11 A3022 RMK A01 T02510105  RH  040%=      5-min Rain = 0
KCO2 111623Z 21002KT 25/10 A3022 RMK A01 T02490103  RH  040%=      5-min Rain = 0
KCO2 111624Z 21003KT 25/10 A3022 RMK A01 T02480104  RH  040%=      5-min Rain = 0
KCO2 111625Z 22003KT 25/10 A3022 RMK A01 T02480104  RH  040%=      5-min Rain = 0
KCO2 111626Z 23001KT 25/10 A3022 RMK A01 T02480102  RH  040%=      5-min Rain = 0
KCO2 111627Z 33000KT 25/10 A3022 RMK A01 T02470102  RH  040%=      5-min Rain = 0
KCO2 111628Z 33001KT 25/10 A3022 RMK A01 T02470103  RH  040%=      5-min Rain = 0
KCO2 111629Z 35002KT 25/10 A3022 RMK A01 T02490104  RH  040%=      5-min Rain = 0
KCO2 111630Z 27001KT 25/11 A3022 RMK A01 T02500105  RH  040%=      5-min Rain = 0
KCO2 111631Z 35000KT 25/10 A3022 RMK A01 T02520104  RH  039%=      5-min Rain = 0
KCO2 111632Z 36002KT 25/11 A3022 RMK A01 T02540107  RH  040%=      5-min Rain = 0
KCO2 111633Z 00004KT 26/11 A3022 RMK A01 T02570107  RH  039%=      5-min Rain = 0
KCO2 111634Z 35003KT 26/11 A3022 RMK A01 T02560106  RH  039%=      5-min Rain = 0
KCO2 111635Z 34002KT 25/10 A3022 RMK A01 T02540103  RH  039%=      5-min Rain = 0
KCO2 111636Z 35004KT 25/10 A3022 RMK A01 T02520104  RH  039%=      5-min Rain = 0
KCO2 111637Z 02003KT 25/11 A3021 RMK A01 T02520105  RH  040%=      5-min Rain = 0
KCO2 111638Z 03003KT 25/11 A3021 RMK A01 T02530107  RH  040%=      5-min Rain = 0
KCO2 111639Z 03004KT 26/11 A3021 RMK A01 T02550108  RH  040%=      5-min Rain = 0
KCO2 111640Z 03003KT 26/11 A3021 RMK A01 T02560107  RH  039%=      5-min Rain = 0
KCO2 111641Z 03002KT 26/11 A3021 RMK A01 T02560106  RH  039%=      5-min Rain = 0
KCO2 111642Z 03003KT 26/11 A3021 RMK A01 T02560107  RH  039%=      5-min Rain = 0
KCO2 111643Z 03001KT 26/11 A3021 RMK A01 T02570110  RH  040%=      5-min Rain = 0
KCO2 111644Z 04002KT 26/11 A3021 RMK A01 T02600108  RH  039%=      5-min Rain = 0
KCO2 111645Z 03002KT 26/11 A3021 RMK A01 T02610105  RH  038%=      5-min Rain = 0
KCO2 111646Z 07001KT 26/11 A3021 RMK A01 T02630111  RH  038%=      5-min Rain = 0
KCO2 111647Z 18001KT 27/11 A3021 RMK A01 T02670108  RH  037%=      5-min Rain = 0
KCO2 111648Z 15002KT 27/11 A3021 RMK A01 T02680107  RH  037%=      5-min Rain = 0
KCO2 111649Z 19001KT 27/11 A3021 RMK A01 T02690107  RH  036%=      5-min Rain = 0
KCO2 111650Z 07001KT 27/11 A3021 RMK A01 T02690106  RH  036%=      5-min Rain = 0
KCO2 111651Z 23001KT 27/11 A3021 RMK A01 T02690107  RH  036%=      5-min Rain = 0
KCO2 111652Z 21001KT 27/11 A3021 RMK A01 T02690107  RH  036%=      5-min Rain = 0
KCO2 111653Z 10001KT 27/11 A3021 RMK A01 T02700109  RH  037%=      5-min Rain = 0
KCO2 111654Z 12003KT 27/11 A3021 RMK A01 T02730110  RH  036%=      5-min Rain = 0
KCO2 111655Z 10002KT 27/11 A3021 RMK A01 T02740109  RH  036%=      5-min Rain = 0
KCO2 111656Z 10002KT 27/11 A3021 RMK A01 T02700106  RH  036%=      5-min Rain = 0
KCO2 111657Z 15002KT 27/11 A3021 RMK A01 T02680107  RH  037%=      5-min Rain = 0
KCO2 111658Z 15002KT 27/10 A3021 RMK A01 T02670104  RH  036%=      5-min Rain = 0
KCO2 111659Z 18002KT 27/11 A3021 RMK A01 T02660105  RH  036%=      5-min Rain = 0
KCO2 111700Z 16003KT 27/11 A3021 RMK A01 T02670106  RH  037%=      5-min Rain = 0
KCO2 111701Z 13003KT 27/11 A3021 RMK A01 T02670105  RH  036%=      5-min Rain = 0
KCO2 111702Z 17002KT 27/11 A3021 RMK A01 T02650106  RH  037%=      5-min Rain = 0
KCO2 111703Z 20004KT 27/11 A302 RMK A01 T02660109  RH  037%=      5-min Rain = 0
KCO2 111704Z 20004KT 27/11 A302 RMK A01 T02700110  RH  037%=      5-min Rain = 0
KCO2 111705Z 19004KT 27/11 A302 RMK A01 T02720108  RH  036%=      5-min Rain = 0
KCO2 111706Z 22004KT 27/11 A302 RMK A01 T02730108  RH  036%=      5-min Rain = 0
KCO2 111707Z 24003KT 27/11 A302 RMK A01 T02700105  RH  036%=      5-min Rain = 0
KCO2 111708Z 22001KT 27/11 A302 RMK A01 T02690108  RH  037%=      5-min Rain = 0
KCO2 111709Z 21002KT 27/10 A302 RMK A01 T02690104  RH  036%=      5-min Rain = 0
KCO2 111710Z 10001KT 27/11 A302 RMK A01 T02680105  RH  036%=      5-min Rain = 0
KCO2 111711Z 09002KT 27/11 A302 RMK A01 T02680107  RH  037%=      5-min Rain = 0
KCO2 111712Z 12002KT 27/11 A302 RMK A01 T02680106  RH  036%=      5-min Rain = 0
KCO2 111713Z 10001KT 27/11 A302 RMK A01 T02680108  RH  037%=      5-min Rain = 0
KCO2 111714Z 11001KT 27/11 A302 RMK A01 T02710110  RH  037%=      5-min Rain = 0
KCO2 111715Z 09002KT 27/11 A302 RMK A01 T02740110  RH  036%=      5-min Rain = 0
KCO2 111716Z 09003KT 27/11 A302 RMK A01 T02740111  RH  036%=      5-min Rain = 0
KCO2 111717Z 09002KT 27/11 A302 RMK A01 T02720108  RH  036%=      5-min Rain = 0
KCO2 111718Z 09005KT 27/11 A302 RMK A01 T02710110  RH  037%=      5-min Rain = 0
KCO2 111719Z 09004KT 27/11 A302 RMK A01 T02710112  RH  037%=      5-min Rain = 0
KCO2 111720Z 09003KT 27/11 A302 RMK A01 T02730111  RH  036%=      5-min Rain = 0
KCO2 111721Z 06003KT 27/11 A302 RMK A01 T02730109  RH  036%=      5-min Rain = 0
KCO2 111722Z 10004KT 27/11 A302 RMK A01 T02720107  RH  036%=      5-min Rain = 0
KCO2 111723Z 12002KT 27/11 A302 RMK A01 T02690107  RH  036%=      5-min Rain = 0
KCO2 111724Z 13001KT 27/11 A302 RMK A01 T02680107  RH  036%=      5-min Rain = 0
KCO2 111725Z 19001KT 27/11 A302 RMK A01 T02680105  RH  036%=      5-min Rain = 0
KCO2 111726Z 20002KT 27/11 A302 RMK A01 T02680106  RH  036%=      5-min Rain = 0
KCO2 111727Z 25001KT 27/11 A302 RMK A01 T02690107  RH  036%=      5-min Rain = 0
KCO2 111728Z 24003KT 27/11 A302 RMK A01 T02690105  RH  036%=      5-min Rain = 0
KCO2 111729Z 29001KT 27/11 A302 RMK A01 T02700106  RH  036%=      5-min Rain = 0
KCO2 111730Z 28004KT 27/11 A302 RMK A01 T02730108  RH  036%=      5-min Rain = 0
KCO2 111731Z 26005KT 27/11 A302 RMK A01 T02740109  RH  036%=      5-min Rain = 0
KCO2 111732Z 25005KT 28/11 A302 RMK A01 T02750109  RH  035%=      5-min Rain = 0
KCO2 111733Z 26005KT 28/11 A302 RMK A01 T02750109  RH  035%=      5-min Rain = 0
KCO2 111734Z 25005KT 28/11 A302 RMK A01 T02750109  RH  036%=      5-min Rain = 0
KCO2 111735Z 25006KT 28/11 A302 RMK A01 T02750107  RH  035%=      5-min Rain = 0
KCO2 111736Z 25003KT 27/11 A302 RMK A01 T02710105  RH  035%=      5-min Rain = 0
KCO2 111737Z 24002KT 27/11 A302 RMK A01 T02700105  RH  036%=      5-min Rain = 0
KCO2 111738Z 20002KT 27/11 A302 RMK A01 T02690105  RH  036%=      5-min Rain = 0
KCO2 111739Z 14001KT 27/10 A3019 RMK A01 T02680104  RH  036%=      5-min Rain = 0
KCO2 111740Z 18002KT 27/11 A3019 RMK A01 T02680105  RH  036%=      5-min Rain = 0
KCO2 111741Z 20004KT 27/11 A3019 RMK A01 T02680108  RH  037%=      5-min Rain = 0
KCO2 111742Z 20004KT 27/11 A3019 RMK A01 T02720109  RH  036%=      5-min Rain = 0
KCO2 111743Z 16002KT 27/11 A3019 RMK A01 T02740107  RH  035%=      5-min Rain = 0
KCO2 111744Z 20003KT 28/11 A3019 RMK A01 T02760108  RH  035%=      5-min Rain = 0
KCO2 111745Z 22005KT 28/11 A3019 RMK A01 T02770109  RH  035%=      5-min Rain = 0
KCO2 111746Z 21003KT 28/11 A3019 RMK A01 T02790109  RH  035%=      5-min Rain = 0
KCO2 111747Z 17004KT 28/11 A3019 RMK A01 T02790107  RH  034%=      5-min Rain = 0
KCO2 111748Z 22004KT 28/11 A3019 RMK A01 T02780107  RH  035%=      5-min Rain = 0
KCO2 111749Z 20004KT 28/11 A3019 RMK A01 T02770110  RH  035%=      5-min Rain = 0
KCO2 111750Z 23005KT 28/11 A3019 RMK A01 T02810110  RH  034%=      5-min Rain = 0
KCO2 111751Z 20004KT 28/11 A3019 RMK A01 T02820109  RH  034%=      5-min Rain = 0
KCO2 111752Z 22003KT 28/11 A3019 RMK A01 T02830111  RH  034%=      5-min Rain = 0
KCO2 111753Z 19003KT 29/11 A3019 RMK A01 T02860108  RH  033%=      5-min Rain = 0
KCO2 111754Z 18003KT 29/11 A3019 RMK A01 T02860105  RH  032%=      5-min Rain = 0
KCO2 111755Z 16003KT 28/11 A3019 RMK A01 T02830105  RH  033%=      5-min Rain = 0
KCO2 111756Z 18006KT 28/11 A3018 RMK A01 T02810105  RH  033%=      5-min Rain = 0
KCO2 111757Z 17004KT 28/11 A3018 RMK A01 T02800105  RH  033%=      5-min Rain = 0
KCO2 111758Z 17005KT 28/11 A3018 RMK A01 T02800107  RH  034%=      5-min Rain = 0
KCO2 111759Z 17004KT 28/11 A3018 RMK A01 T02810106  RH  034%=      5-min Rain = 0
KCO2 111800Z 17005KT 28/11 A3018 RMK A01 T02830110  RH  034%=      5-min Rain = 0
KCO2 111801Z 17005KT 29/11 A3018 RMK A01 T02870110  RH  033%=      5-min Rain = 0
KCO2 111802Z 12006KT 29/11 A3018 RMK A01 T02900111  RH  033%=      5-min Rain = 0
KCO2 111803Z 12006KT 29/11 A3018 RMK A01 T02910113  RH  033%=      5-min Rain = 0
KCO2 111804Z 09010KT 29/11 A3018 RMK A01 T02900113  RH  033%=      5-min Rain = 0
KCO2 111805Z 03007G12KT 29/11 A3018 RMK A01 T02890112  RH  033%=      5-min Rain = 0
KCO2 111806Z 01004KT 29/11 A3018 RMK A01 T02900112  RH  033%=      5-min Rain = 0
KCO2 111807Z 03006KT 29/11 A3018 RMK A01 T02900109  RH  033%=      5-min Rain = 0
KCO2 111808Z 03006KT 29/11 A3018 RMK A01 T02870108  RH  033%=      5-min Rain = 0
KCO2 111809Z 04003KT 29/11 A3018 RMK A01 T02850107  RH  033%=      5-min Rain = 0
KCO2 111810Z 02002KT 28/11 A3018 RMK A01 T02830106  RH  033%=      5-min Rain = 0
KCO2 111811Z 04002KT 28/11 A3018 RMK A01 T02820106  RH  033%=      5-min Rain = 0
KCO2 111812Z 04004KT 28/11 A3018 RMK A01 T02820105  RH  033%=      5-min Rain = 0
KCO2 111813Z 09004KT 28/11 A3018 RMK A01 T02830109  RH  034%=      5-min Rain = 0
KCO2 111814Z 10002KT 29/11 A3018 RMK A01 T02850109  RH  034%=      5-min Rain = 0
KCO2 111815Z 27002KT 29/11 A3018 RMK A01 T02860108  RH  033%=      5-min Rain = 0
KCO2 111816Z 34005KT 29/11 A3018 RMK A01 T02900107  RH  032%=      5-min Rain = 0
KCO2 111817Z 00006KT 29/11 A3018 RMK A01 T02890106  RH  032%=      5-min Rain = 0
KCO2 111818Z 05007KT 29/11 A3018 RMK A01 T02910110  RH  033%=      5-min Rain = 0
KCO2 111819Z 03006KT 29/11 A3018 RMK A01 T02890106  RH  032%=      5-min Rain = 0
KCO2 111820Z 01005KT 29/11 A3018 RMK A01 T02860107  RH  033%=      5-min Rain = 0
KCO2 111821Z 03005KT 29/11 A3018 RMK A01 T02870105  RH  032%=      5-min Rain = 0
KCO2 111822Z 04006KT 29/11 A3018 RMK A01 T02870108  RH  033%=      5-min Rain = 0
KCO2 111823Z 03005KT 29/11 A3018 RMK A01 T02870107  RH  033%=      5-min Rain = 0
KCO2 111824Z 05006KT 29/11 A3018 RMK A01 T02880109  RH  033%=      5-min Rain = 0
KCO2 111825Z 05004KT 29/11 A3018 RMK A01 T02860106  RH  033%=      5-min Rain = 0
KCO2 111826Z 03004KT 28/11 A3018 RMK A01 T02840107  RH  033%=      5-min Rain = 0
KCO2 111827Z 02004KT 28/10 A3018 RMK A01 T02830104  RH  033%=      5-min Rain = 0
KCO2 111828Z 04003KT 28/11 A3018 RMK A01 T02820105  RH  033%=      5-min Rain = 0
KCO2 111829Z 03004KT 28/11 A3018 RMK A01 T02820105  RH  033%=      5-min Rain = 0
KCO2 111830Z 04005KT 28/11 A3018 RMK A01 T02830105  RH  033%=      5-min Rain = 0
KCO2 111831Z 08003KT 28/10 A3018 RMK A01 T02820104  RH  033%=      5-min Rain = 0
KCO2 111832Z 04000KT 28/10 A3017 RMK A01 T02810104  RH  033%=      5-min Rain = 0
KCO2 111833Z 22000KT 28/11 A3017 RMK A01 T02820105  RH  033%=      5-min Rain = 0
KCO2 111834Z 07002KT 28/11 A3017 RMK A01 T02830106  RH  033%=      5-min Rain = 0
KCO2 111835Z 05001KT 28/11 A3017 RMK A01 T02830105  RH  033%=      5-min Rain = 0
KCO2 111836Z 02000KT 28/11 A3017 RMK A01 T02820105  RH  033%=      5-min Rain = 0
KCO2 111837Z 14002KT 28/11 A3017 RMK A01 T02820106  RH  033%=      5-min Rain = 0
KCO2 111838Z 11004G9KT 29/11 A3017 RMK A01 T02850108  RH  033%=      5-min Rain = 0
KCO2 111839Z 08007KT 29/11 A3017 RMK A01 T02890110  RH  033%=      5-min Rain = 0
KCO2 111840Z 07007KT 29/11 A3017 RMK A01 T02910109  RH  032%=      5-min Rain = 0
KCO2 111841Z 05006KT 29/11 A3017 RMK A01 T02920111  RH  033%=      5-min Rain = 0
KCO2 111842Z 06008KT 29/11 A3017 RMK A01 T02930107  RH  032%=      5-min Rain = 0
KCO2 111843Z 05005KT 29/11 A3017 RMK A01 T02910110  RH  033%=      5-min Rain = 0
KCO2 111844Z 02006KT 29/11 A3017 RMK A01 T02900107  RH  032%=      5-min Rain = 0
KCO2 111845Z 02004KT 29/11 A3017 RMK A01 T02890106  RH  032%=      5-min Rain = 0
KCO2 111846Z 02004KT 29/11 A3017 RMK A01 T02880107  RH  032%=      5-min Rain = 0
KCO2 111847Z 01003KT 29/11 A3016 RMK A01 T02890107  RH  032%=      5-min Rain = 0
KCO2 111848Z 09004KT 29/11 A3016 RMK A01 T02890109  RH  033%=      5-min Rain = 0
KCO2 111849Z 07006KT 29/11 A3016 RMK A01 T02900111  RH  033%=      5-min Rain = 0
KCO2 111850Z 03005KT 29/11 A3016 RMK A01 T02920107  RH  032%=      5-min Rain = 0
KCO2 111851Z 06009KT 29/11 A3016 RMK A01 T02920107  RH  032%=      5-min Rain = 0
KCO2 111852Z 05006KT 29/11 A3016 RMK A01 T02890106  RH  032%=      5-min Rain = 0
KCO2 111853Z 07006KT 29/11 A3016 RMK A01 T02870107  RH  033%=      5-min Rain = 0
KCO2 111854Z 08006KT 29/11 A3016 RMK A01 T02870109  RH  033%=      5-min Rain = 0
KCO2 111855Z 08004KT 29/11 A3016 RMK A01 T02880109  RH  033%=      5-min Rain = 0
KCO2 111856Z 04007KT 29/11 A3016 RMK A01 T02910108  RH  032%=      5-min Rain = 0
KCO2 111857Z 05007KT 29/11 A3016 RMK A01 T02910106  RH  032%=      5-min Rain = 0
KCO2 111858Z 05008KT 29/11 A3016 RMK A01 T02900108  RH  032%=      5-min Rain = 0
KCO2 111859Z 05005KT 29/11 A3016 RMK A01 T02920107  RH  032%=      5-min Rain = 0
KCO2 111900Z 07004KT 29/11 A3016 RMK A01 T02910105  RH  032%=      5-min Rain = 0
KCO2 111901Z 08002KT 29/11 A3016 RMK A01 T02900106  RH  032%=      5-min Rain = 0
KCO2 111902Z 09000KT 29/11 A3016 RMK A01 T02900105  RH  032%=      5-min Rain = 0
KCO2 111903Z 10003KT 29/11 A3016 RMK A01 T02910106  RH  032%=      5-min Rain = 0
KCO2 111904Z 08006KT 29/11 A3016 RMK A01 T02930108  RH  032%=      5-min Rain = 0
KCO2 111905Z 04007KT 29/11 A3016 RMK A01 T02930108  RH  032%=      5-min Rain = 0
KCO2 111906Z 04007G12KT 29/11 A3016 RMK A01 T02930108  RH  032%=      5-min Rain = 0
KCO2 111907Z 05010KT 30/11 A3016 RMK A01 T02950110  RH  032%=      5-min Rain = 0
KCO2 111908Z 04010KT 30/11 A3016 RMK A01 T02990109  RH  031%=      5-min Rain = 0
KCO2 111909Z 03008KT 30/11 A3016 RMK A01 T02990107  RH  031%=      5-min Rain = 0
KCO2 111910Z 03008KT 30/11 A3016 RMK A01 T02970107  RH  031%=      5-min Rain = 0
KCO2 111911Z 05006KT 30/11 A3016 RMK A01 T02970109  RH  031%=      5-min Rain = 0
KCO2 111912Z 04007KT 30/11 A3015 RMK A01 T02970108  RH  031%=      5-min Rain = 0
KCO2 111913Z 04009KT 30/11 A3016 RMK A01 T02970109  RH  031%=      5-min Rain = 0
KCO2 111914Z 04008KT 30/11 A3016 RMK A01 T02970107  RH  031%=      5-min Rain = 0
KCO2 111915Z 05004KT 30/11 A3016 RMK A01 T02950106  RH  031%=      5-min Rain = 0
KCO2 111916Z 07003KT 29/11 A3015 RMK A01 T02920105  RH  031%=      5-min Rain = 0
KCO2 111917Z 09001KT 29/10 A3015 RMK A01 T02900104  RH  031%=      5-min Rain = 0
KCO2 111918Z 21002KT 29/10 A3015 RMK A01 T02890103  RH  031%=      5-min Rain = 0
KCO2 111919Z 19003KT 29/10 A3015 RMK A01 T02890103  RH  031%=      5-min Rain = 0
KCO2 111920Z 12002KT 29/10 A3015 RMK A01 T02890103  RH  031%=      5-min Rain = 0
KCO2 111921Z 08007KT 29/11 A3015 RMK A01 T02900108  RH  032%=      5-min Rain = 0
KCO2 111922Z 08008KT 29/11 A3015 RMK A01 T02940110  RH  032%=      5-min Rain = 0
KCO2 111923Z 11005KT 30/11 A3015 RMK A01 T02960109  RH  031%=      5-min Rain = 0
KCO2 111924Z 07005KT 30/11 A3015 RMK A01 T02960111  RH  032%=      5-min Rain = 0
KCO2 111925Z 05006KT 30/11 A3015 RMK A01 T02980109  RH  031%=      5-min Rain = 0
KCO2 111926Z 02007KT 30/11 A3015 RMK A01 T03000108  RH  031%=      5-min Rain = 0
KCO2 111927Z 03005KT 30/11 A3015 RMK A01 T03010106  RH  030%=      5-min Rain = 0
KCO2 111928Z 06007KT 30/11 A3015 RMK A01 T02990108  RH  031%=      5-min Rain = 0
KCO2 111929Z 05009KT 30/11 A3015 RMK A01 T03000109  RH  031%=      5-min Rain = 0
KCO2 111930Z 06010KT 30/11 A3015 RMK A01 T03020106  RH  030%=      5-min Rain = 0
KCO2 111931Z 05006KT 30/11 A3014 RMK A01 T02970106  RH  031%=      5-min Rain = 0
KCO2 111932Z 05009KT 30/11 A3014 RMK A01 T02970112  RH  032%=      5-min Rain = 0
KCO2 111933Z 04006KT 30/11 A3014 RMK A01 T03030110  RH  030%=      5-min Rain = 0
KCO2 111934Z 08010KT 31/11 A3014 RMK A01 T03050109  RH  030%=      5-min Rain = 0
KCO2 111935Z 09009KT 30/11 A3014 RMK A01 T03020109  RH  031%=      5-min Rain = 0
KCO2 111936Z 11010KT 30/11 A3014 RMK A01 T03000109  RH  031%=      5-min Rain = 0
KCO2 111937Z 10008KT 30/11 A3014 RMK A01 T02990109  RH  031%=      5-min Rain = 0
KCO2 111938Z 11003KT 30/11 A3014 RMK A01 T02980107  RH  031%=      5-min Rain = 0
KCO2 111939Z 08002KT 30/11 A3014 RMK A01 T02960106  RH  031%=      5-min Rain = 0
KCO2 111940Z 09005KT 30/11 A3014 RMK A01 T02960109  RH  031%=      5-min Rain = 0
KCO2 111941Z 07004KT 30/11 A3014 RMK A01 T02980106  RH  030%=      5-min Rain = 0
KCO2 111942Z 03006KT 30/11 A3014 RMK A01 T02970109  RH  031%=      5-min Rain = 0
KCO2 111943Z 06007KT 30/11 A3014 RMK A01 T03000109  RH  031%=      5-min Rain = 0
KCO2 111944Z 07005KT 30/11 A3014 RMK A01 T03020109  RH  030%=      5-min Rain = 0
KCO2 111945Z 04008KT 30/11 A3014 RMK A01 T03020111  RH  031%=      5-min Rain = 0
KCO2 111946Z 03011KT 31/11 A3014 RMK A01 T03050108  RH  030%=      5-min Rain = 0
KCO2 111947Z 02011KT 30/11 A3014 RMK A01 T03030105  RH  029%=      5-min Rain = 0
KCO2 111948Z 02011KT 30/11 A3014 RMK A01 T03020107  RH  030%=      5-min Rain = 0
KCO2 111949Z 03013KT 30/11 A3014 RMK A01 T03040107  RH  030%=      5-min Rain = 0
KCO2 111950Z 03009KT 30/11 A3014 RMK A01 T03030105  RH  029%=      5-min Rain = 0
KCO2 111951Z 00007KT 30/11 A3014 RMK A01 T03020108  RH  030%=      5-min Rain = 0
KCO2 111952Z 03007KT 30/11 A3013 RMK A01 T03020107  RH  030%=      5-min Rain = 0
KCO2 111953Z 05010KT 30/11 A3014 RMK A01 T03040108  RH  030%=      5-min Rain = 0
KCO2 111954Z 05006KT 30/11 A3013 RMK A01 T03010105  RH  030%=      5-min Rain = 0
KCO2 111955Z 04006KT 30/11 A3013 RMK A01 T02980106  RH  031%=      5-min Rain = 0
KCO2 111956Z 04008KT 30/11 A3013 RMK A01 T02990107  RH  030%=      5-min Rain = 0
KCO2 111957Z 07005KT 30/10 A3013 RMK A01 T02990104  RH  030%=      5-min Rain = 0
KCO2 111958Z 08002KT 30/10 A3013 RMK A01 T02970104  RH  030%=      5-min Rain = 0
KCO2 111959Z 08003KT 30/11 A3013 RMK A01 T02970106  RH  031%=      5-min Rain = 0
KCO2 112000Z 07005KT 30/11 A3013 RMK A01 T02980106  RH  030%=      5-min Rain = 0
KCO2 112001Z 06002KT 30/10 A3013 RMK A01 T02980104  RH  030%=      5-min Rain = 0
KCO2 112002Z 09002KT 30/10 A3013 RMK A01 T02970103  RH  030%=      5-min Rain = 0
KCO2 112003Z 09006KT 30/11 A3013 RMK A01 T02960106  RH  031%=      5-min Rain = 0
KCO2 112004Z 12005KT 30/10 A3012 RMK A01 T02970104  RH  030%=      5-min Rain = 0
KCO2 112005Z 10005G12KT 30/11 A3012 RMK A01 T02970105  RH  030%=      5-min Rain = 0
KCO2 112006Z 07010G18KT 30/11 A3012 RMK A01 T02990108  RH  031%=      5-min Rain = 0
KCO2 112007Z 06010KT 30/11 A3012 RMK A01 T03010107  RH  030%=      5-min Rain = 0
KCO2 112008Z 06006KT 30/11 A3012 RMK A01 T03010106  RH  030%=      5-min Rain = 0
KCO2 112009Z 06011KT 30/11 A3012 RMK A01 T03010108  RH  030%=      5-min Rain = 0
KCO2 112010Z 06013KT 30/11 A3012 RMK A01 T03020106  RH  030%=      5-min Rain = 0
KCO2 112011Z 08010KT 30/11 A3012 RMK A01 T03010109  RH  030%=      5-min Rain = 0
KCO2 112012Z 08010KT 30/11 A3012 RMK A01 T03010109  RH  031%=      5-min Rain = 0
KCO2 112013Z 05008KT 30/11 A3012 RMK A01 T03020108  RH  030%=      5-min Rain = 0
KCO2 112014Z 07005KT 30/11 A3012 RMK A01 T03040107  RH  030%=      5-min Rain = 0
KCO2 112015Z 03004KT 30/11 A3012 RMK A01 T03030107  RH  030%=      5-min Rain = 0
KCO2 112016Z 00007KT 31/11 A3012 RMK A01 T03050108  RH  030%=      5-min Rain = 0
KCO2 112017Z 03006G12KT 31/11 A3012 RMK A01 T03060106  RH  029%=      5-min Rain = 0
KCO2 112018Z 04011KT 31/11 A3012 RMK A01 T03060108  RH  029%=      5-min Rain = 0
KCO2 112019Z 02008KT 31/11 A3012 RMK A01 T03050109  RH  030%=      5-min Rain = 0
KCO2 112020Z 00007KT 31/11 A3012 RMK A01 T03060108  RH  030%=      5-min Rain = 0
KCO2 112021Z 36008KT 31/11 A3012 RMK A01 T03060107  RH  029%=      5-min Rain = 0
KCO2 112022Z 36006KT 31/11 A3011 RMK A01 T03060107  RH  029%=      5-min Rain = 0
KCO2 112023Z 06007G12KT 31/11 A3011 RMK A01 T03070109  RH  030%=      5-min Rain = 0
KCO2 112024Z 05010KT 31/11 A3011 RMK A01 T03080108  RH  029%=      5-min Rain = 0
KCO2 112025Z 04008KT 31/11 A3011 RMK A01 T03070107  RH  029%=      5-min Rain = 0
KCO2 112026Z 03007KT 30/11 A3011 RMK A01 T03040106  RH  029%=      5-min Rain = 0
KCO2 112027Z 06008KT 30/11 A3011 RMK A01 T03040109  RH  030%=      5-min Rain = 0
KCO2 112028Z 07005KT 30/11 A3011 RMK A01 T03040105  RH  029%=      5-min Rain = 0
KCO2 112029Z 06007KT 30/11 A3011 RMK A01 T03010107  RH  030%=      5-min Rain = 0
KCO2 112030Z 06007KT 30/11 A3011 RMK A01 T03020107  RH  030%=      5-min Rain = 0
KCO2 112031Z 05008KT 30/11 A3011 RMK A01 T03030108  RH  030%=      5-min Rain = 0
KCO2 112032Z 03007KT 31/11 A3011 RMK A01 T03060109  RH  030%=      5-min Rain = 0
KCO2 112033Z 03006KT 31/11 A3011 RMK A01 T03070105  RH  029%=      5-min Rain = 0
KCO2 112034Z 07010KT 31/11 A3011 RMK A01 T03070106  RH  029%=      5-min Rain = 0
KCO2 112035Z 06008KT 31/11 A3011 RMK A01 T03070105  RH  029%=      5-min Rain = 0
KCO2 112036Z 06005KT 31/11 A3011 RMK A01 T03060105  RH  029%=      5-min Rain = 0
KCO2 112037Z 05008KT 30/11 A3011 RMK A01 T03040106  RH  029%=      5-min Rain = 0
KCO2 112038Z 07007KT 30/10 A3011 RMK A01 T03020102  RH  029%=      5-min Rain = 0
KCO2 112039Z 07009KT 30/10 A301 RMK A01 T03010104  RH  029%=      5-min Rain = 0
KCO2 112040Z 07006KT 30/10 A301 RMK A01 T03010103  RH  029%=      5-min Rain = 0
KCO2 112041Z 06009KT 30/11 A301 RMK A01 T03010111  RH  031%=      5-min Rain = 0
KCO2 112042Z 04010KT 31/11 A301 RMK A01 T03060108  RH  029%=      5-min Rain = 0
KCO2 112043Z 02009KT 31/11 A301 RMK A01 T03100106  RH  028%=      5-min Rain = 0
KCO2 112044Z 02007KT 31/11 A301 RMK A01 T03090106  RH  029%=      5-min Rain = 0
KCO2 112045Z 03011KT 31/11 A301 RMK A01 T03090107  RH  029%=      5-min Rain = 0
KCO2 112046Z 03011KT 31/11 A301 RMK A01 T03100107  RH  029%=      5-min Rain = 0
KCO2 112047Z 03008KT 31/11 A301 RMK A01 T03100107  RH  028%=      5-min Rain = 0
KCO2 112048Z 02007KT 31/11 A301 RMK A01 T03100106  RH  028%=      5-min Rain = 0
KCO2 112049Z 02006KT 31/11 A301 RMK A01 T03100108  RH  029%=      5-min Rain = 0
KCO2 112050Z 04005KT 31/10 A301 RMK A01 T03100104  RH  028%=      5-min Rain = 0
KCO2 112051Z 04003KT 31/10 A301 RMK A01 T03080103  RH  028%=      5-min Rain = 0
KCO2 112052Z 03001KT 31/10 A301 RMK A01 T03050100  RH  028%=      5-min Rain = 0
KCO2 112053Z 32001KT 31/10 A3009 RMK A01 T03050102  RH  028%=      5-min Rain = 0
KCO2 112054Z 06007KT 31/11 A3009 RMK A01 T03060105  RH  029%=      5-min Rain = 0
KCO2 112055Z 07008KT 31/11 A3009 RMK A01 T03070108  RH  029%=      5-min Rain = 0
KCO2 112056Z 07009KT 31/11 A3009 RMK A01 T03080110  RH  029%=      5-min Rain = 0
KCO2 112057Z 07009KT 31/11 A3009 RMK A01 T03100107  RH  029%=      5-min Rain = 0
KCO2 112058Z 07008KT 31/11 A3009 RMK A01 T03080107  RH  029%=      5-min Rain = 0
KCO2 112059Z 09008KT 31/11 A3009 RMK A01 T03070108  RH  029%=      5-min Rain = 0
KCO2 112100Z 08006KT 31/11 A3009 RMK A01 T03070112  RH  030%=      5-min Rain = 0
KCO2 112101Z 06007KT 31/11 A3009 RMK A01 T03080108  RH  029%=      5-min Rain = 0
KCO2 112102Z 07004KT 31/11 A3009 RMK A01 T03070108  RH  029%=      5-min Rain = 0
KCO2 112103Z 05003KT 31/11 A3009 RMK A01 T03060107  RH  029%=      5-min Rain = 0
KCO2 112104Z 03006KT 31/11 A3009 RMK A01 T03060107  RH  029%=      5-min Rain = 0
KCO2 112105Z 02006KT 31/11 A3009 RMK A01 T03060105  RH  029%=      5-min Rain = 0
KCO2 112106Z 07004KT 31/11 A3009 RMK A01 T03080105  RH  029%=      5-min Rain = 0
KCO2 112107Z 08008KT 31/11 A3009 RMK A01 T03090107  RH  029%=      5-min Rain = 0
KCO2 112108Z 06008KT 31/11 A3009 RMK A01 T03100105  RH  028%=      5-min Rain = 0
KCO2 112109Z 08007KT 31/11 A3009 RMK A01 T03090105  RH  028%=      5-min Rain = 0
KCO2 112110Z 09004KT 31/11 A3009 RMK A01 T03070107  RH  029%=      5-min Rain = 0
KCO2 112111Z 12004KT 31/11 A3009 RMK A01 T03070106  RH  029%=      5-min Rain = 0
KCO2 112112Z 08005KT 31/11 A3009 RMK A01 T03090107  RH  029%=      5-min Rain = 0
KCO2 112113Z 09005KT 31/11 A3009 RMK A01 T03080107  RH  029%=      5-min Rain = 0
KCO2 112114Z 06007KT 31/11 A3009 RMK A01 T03080108  RH  029%=      5-min Rain = 0
KCO2 112115Z 04010KT 31/10 A3009 RMK A01 T03090103  RH  028%=      5-min Rain = 0
KCO2 112116Z 04008KT 31/10 A3009 RMK A01 T03100100  RH  027%=      5-min Rain = 0
KCO2 112117Z 03010KT 31/10 A3009 RMK A01 T03100103  RH  028%=      5-min Rain = 0
KCO2 112118Z 03009KT 31/10 A3009 RMK A01 T03120102  RH  027%=      5-min Rain = 0
KCO2 112119Z 05009KT 31/11 A3009 RMK A01 T03120105  RH  028%=      5-min Rain = 0
KCO2 112120Z 05006KT 31/10 A3009 RMK A01 T03110103  RH  028%=      5-min Rain = 0
KCO2 112121Z 08003KT 31/10 A3009 RMK A01 T03080102  RH  028%=      5-min Rain = 0
KCO2 112122Z 12003KT 31/10 A3009 RMK A01 T03060101  RH  028%=      5-min Rain = 0
KCO2 112123Z 17001KT 31/10 A3008 RMK A01 T03060100  RH  028%=      5-min Rain = 0
KCO2 112124Z 01002KT 31/10 A3008 RMK A01 T03050100  RH  028%=      5-min Rain = 0
KCO2 112125Z 03004KT 31/10 A3008 RMK A01 T03070101  RH  028%=      5-min Rain = 0
KCO2 112126Z 07001KT 31/10 A3008 RMK A01 T03060099  RH  028%=      5-min Rain = 0
KCO2 112127Z 05002KT 31/10 A3008 RMK A01 T03060099  RH  028%=      5-min Rain = 0
KCO2 112128Z 01004KT 31/10 A3008 RMK A01 T03070098  RH  028%=      5-min Rain = 0
KCO2 112129Z 35004KT 31/10 A3008 RMK A01 T03080101  RH  028%=      5-min Rain = 0
KCO2 112130Z 35007KT 31/10 A3008 RMK A01 T03110100  RH  027%=      5-min Rain = 0
KCO2 112131Z 33006KT 31/10 A3008 RMK A01 T03120099  RH  027%=      5-min Rain = 0
KCO2 112132Z 31005KT 31/10 A3008 RMK A01 T03120097  RH  027%=      5-min Rain = 0
KCO2 112133Z 31005KT 31/10 A3008 RMK A01 T03140098  RH  026%=      5-min Rain = 0
KCO2 112134Z 02006KT 32/10 A3008 RMK A01 T03160099  RH  026%=      5-min Rain = 0
KCO2 112135Z 01009KT 32/10 A3008 RMK A01 T03170101  RH  026%=      5-min Rain = 0
KCO2 112136Z 36008KT 32/10 A3008 RMK A01 T03160101  RH  026%=      5-min Rain = 0
KCO2 112137Z 36006KT 32/10 A3008 RMK A01 T03150100  RH  027%=      5-min Rain = 0
KCO2 112138Z 04005KT 31/10 A3008 RMK A01 T03120101  RH  027%=      5-min Rain = 0
KCO2 112139Z 05008KT 31/10 A3008 RMK A01 T03120103  RH  028%=      5-min Rain = 0
KCO2 112140Z 07008KT 31/11 A3008 RMK A01 T03110106  RH  028%=      5-min Rain = 0
KCO2 112141Z 08005KT 31/11 A3008 RMK A01 T03120105  RH  028%=      5-min Rain = 0
KCO2 112142Z 05003KT 31/11 A3008 RMK A01 T03110106  RH  028%=      5-min Rain = 0
KCO2 112143Z 05007KT 31/11 A3008 RMK A01 T03120105  RH  028%=      5-min Rain = 0
KCO2 112144Z 04010KT 31/10 A3008 RMK A01 T03130104  RH  028%=      5-min Rain = 0
KCO2 112145Z 04009KT 31/10 A3008 RMK A01 T03140103  RH  027%=      5-min Rain = 0
KCO2 112146Z 05009KT 31/10 A3008 RMK A01 T03140104  RH  028%=      5-min Rain = 0
KCO2 112147Z 05008KT 31/10 A3008 RMK A01 T03130103  RH  027%=      5-min Rain = 0
KCO2 112148Z 08010KT 31/11 A3008 RMK A01 T03110105  RH  028%=      5-min Rain = 0
KCO2 112149Z 08009KT 31/11 A3008 RMK A01 T03110105  RH  028%=      5-min Rain = 0
KCO2 112150Z 08006KT 31/10 A3008 RMK A01 T03110104  RH  028%=      5-min Rain = 0
KCO2 112151Z 06007KT 31/11 A3008 RMK A01 T03110105  RH  028%=      5-min Rain = 0
KCO2 112152Z 07008G13KT 31/11 A3008 RMK A01 T03110108  RH  029%=      5-min Rain = 0
KCO2 112153Z 07010KT 31/11 A3008 RMK A01 T03110105  RH  028%=      5-min Rain = 0
KCO2 112154Z 06007KT 31/10 A3008 RMK A01 T03100102  RH  028%=      5-min Rain = 0
KCO2 112155Z 07007KT 31/10 A3008 RMK A01 T03090104  RH  028%=      5-min Rain = 0
KCO2 112156Z 08007KT 31/11 A3008 RMK A01 T03090107  RH  029%=      5-min Rain = 0
KCO2 112157Z 07003KT 31/10 A3008 RMK A01 T03110104  RH  028%=      5-min Rain = 0
KCO2 112158Z 11005KT 31/10 A3007 RMK A01 T03120102  RH  027%=      5-min Rain = 0
KCO2 112159Z 10005KT 31/11 A3007 RMK A01 T03120105  RH  028%=      5-min Rain = 0
KCO2 112200Z 09005KT 31/10 A3007 RMK A01 T03120104  RH  028%=      5-min Rain = 0
KCO2 112201Z 08003KT 31/10 A3007 RMK A01 T03110102  RH  028%=      5-min Rain = 0
KCO2 112202Z 09004KT 31/10 A3007 RMK A01 T03100102  RH  028%=      5-min Rain = 0
KCO2 112203Z 09006KT 31/11 A3007 RMK A01 T03100108  RH  029%=      5-min Rain = 0
KCO2 112204Z 07005KT 31/11 A3007 RMK A01 T03110107  RH  028%=      5-min Rain = 0
KCO2 112205Z 06004KT 31/10 A3007 RMK A01 T03110102  RH  028%=      5-min Rain = 0
KCO2 112206Z 04008KT 31/10 A3007 RMK A01 T03090103  RH  028%=      5-min Rain = 0
KCO2 112207Z 35008KT 31/10 A3007 RMK A01 T03110103  RH  028%=      5-min Rain = 0
KCO2 112208Z 01006KT 31/10 A3007 RMK A01 T03120096  RH  026%=      5-min Rain = 0
KCO2 112209Z 03009KT 31/10 A3007 RMK A01 T03120100  RH  027%=      5-min Rain = 0
KCO2 112210Z 03010KT 31/10 A3007 RMK A01 T03120098  RH  027%=      5-min Rain = 0
KCO2 112211Z 03008KT 31/10 A3007 RMK A01 T03120098  RH  027%=      5-min Rain = 0
KCO2 112212Z 04007KT 31/10 A3007 RMK A01 T03110099  RH  027%=      5-min Rain = 0
KCO2 112213Z 04007KT 31/10 A3007 RMK A01 T03110101  RH  027%=      5-min Rain = 0
KCO2 112214Z 02004KT 31/10 A3007 RMK A01 T03110101  RH  027%=      5-min Rain = 0
KCO2 112215Z 01004KT 31/10 A3007 RMK A01 T03120100  RH  027%=      5-min Rain = 0
KCO2 112216Z 06002KT 31/10 A3007 RMK A01 T03120100  RH  027%=      5-min Rain = 0
KCO2 112217Z 02006KT 31/10 A3007 RMK A01 T03110103  RH  028%=      5-min Rain = 0
KCO2 112218Z 36009KT 31/10 A3007 RMK A01 T03130103  RH  027%=      5-min Rain = 0
KCO2 112219Z 00005KT 31/10 A3007 RMK A01 T03140101  RH  027%=      5-min Rain = 0
KCO2 112220Z 02005KT 31/10 A3007 RMK A01 T03130104  RH  027%=      5-min Rain = 0
KCO2 112221Z 02007KT 31/10 A3007 RMK A01 T03140103  RH  027%=      5-min Rain = 0
KCO2 112222Z 02005KT 32/10 A3007 RMK A01 T03150102  RH  027%=      5-min Rain = 0
KCO2 112223Z 02010KT 32/10 A3007 RMK A01 T03150099  RH  026%=      5-min Rain = 0
KCO2 112224Z 03008KT 31/09 A3007 RMK A01 T03130094  RH  026%=      5-min Rain = 0
KCO2 112225Z 06005KT 31/10 A3007 RMK A01 T03100096  RH  027%=      5-min Rain = 0
KCO2 112226Z 07004KT 31/10 A3007 RMK A01 T03100100  RH  027%=      5-min Rain = 0
KCO2 112227Z 02005KT 31/10 A3007 RMK A01 T03080098  RH  027%=      5-min Rain = 0
KCO2 112228Z 01005KT 31/10 A3007 RMK A01 T03070102  RH  028%=      5-min Rain = 0
KCO2 112229Z 01007KT 31/10 A3007 RMK A01 T03090104  RH  028%=      5-min Rain = 0
KCO2 112230Z 01008KT 31/10 A3007 RMK A01 T03100102  RH  028%=      5-min Rain = 0
KCO2 112231Z 02007KT 31/11 A3007 RMK A01 T03110105  RH  028%=      5-min Rain = 0
KCO2 112232Z 02006KT 31/10 A3007 RMK A01 T03120103  RH  028%=      5-min Rain = 0
KCO2 112233Z 01005KT 31/10 A3007 RMK A01 T03120103  RH  027%=      5-min Rain = 0
KCO2 112234Z 01003KT 31/10 A3007 RMK A01 T03120103  RH  028%=      5-min Rain = 0
KCO2 112235Z 02004KT 31/10 A3007 RMK A01 T03120103  RH  028%=      5-min Rain = 0
KCO2 112236Z 04004KT 31/10 A3007 RMK A01 T03120101  RH  027%=      5-min Rain = 0
KCO2 112237Z 07002KT 31/10 A3007 RMK A01 T03110101  RH  027%=      5-min Rain = 0
KCO2 112238Z 12002KT 31/10 A3007 RMK A01 T03100101  RH  028%=      5-min Rain = 0
KCO2 112239Z 09002KT 31/10 A3007 RMK A01 T03090102  RH  028%=      5-min Rain = 0
KCO2 112240Z 05006KT 31/10 A3007 RMK A01 T03090102  RH  028%=      5-min Rain = 0
KCO2 112241Z 02007KT 31/10 A3007 RMK A01 T03080102  RH  028%=      5-min Rain = 0
KCO2 112242Z 02007KT 31/10 A3007 RMK A01 T03080102  RH  028%=      5-min Rain = 0
KCO2 112243Z 01005KT 31/10 A3007 RMK A01 T03100102  RH  028%=      5-min Rain = 0
KCO2 112244Z 02005KT 31/10 A3007 RMK A01 T03100102  RH  028%=      5-min Rain = 0
KCO2 112245Z 03006KT 31/10 A3007 RMK A01 T03100103  RH  028%=      5-min Rain = 0
KCO2 112246Z 02006KT 31/10 A3007 RMK A01 T03110104  RH  028%=      5-min Rain = 0
KCO2 112247Z 35006KT 31/10 A3007 RMK A01 T03110103  RH  028%=      5-min Rain = 0
KCO2 112248Z 35004KT 31/10 A3007 RMK A01 T03110103  RH  028%=      5-min Rain = 0
KCO2 112249Z 36004KT 31/10 A3007 RMK A01 T03120102  RH  027%=      5-min Rain = 0
KCO2 112250Z 01005KT 31/10 A3007 RMK A01 T03120099  RH  027%=      5-min Rain = 0
KCO2 112251Z 35005KT 31/10 A3007 RMK A01 T03110096  RH  026%=      5-min Rain = 0
KCO2 112252Z 03008KT 31/10 A3007 RMK A01 T03110101  RH  027%=      5-min Rain = 0
KCO2 112253Z 03007KT 31/10 A3007 RMK A01 T03110102  RH  027%=      5-min Rain = 0
KCO2 112254Z 04008KT 31/10 A3007 RMK A01 T03110103  RH  028%=      5-min Rain = 0
KCO2 112255Z 04009KT 31/10 A3007 RMK A01 T03100103  RH  028%=      5-min Rain = 0
KCO2 112256Z 03008KT 31/10 A3007 RMK A01 T03100102  RH  028%=      5-min Rain = 0
KCO2 112257Z 02008KT 31/10 A3007 RMK A01 T03100101  RH  027%=      5-min Rain = 0
KCO2 112258Z 02007KT 31/10 A3007 RMK A01 T03100099  RH  027%=      5-min Rain = 0
KCO2 112259Z 01004KT 31/10 A3007 RMK A01 T03080100  RH  028%=      5-min Rain = 0
KCO2 112300Z 35003KT 31/10 A3007 RMK A01 T03080099  RH  028%=      5-min Rain = 0
KCO2 112301Z 02004KT 31/10 A3007 RMK A01 T03090101  RH  028%=      5-min Rain = 0
KCO2 112302Z 04004KT 31/10 A3007 RMK A01 T03090102  RH  028%=      5-min Rain = 0
KCO2 112303Z 01003KT 31/10 A3007 RMK A01 T03090102  RH  028%=      5-min Rain = 0
KCO2 112304Z 04006KT 31/10 A3007 RMK A01 T03090102  RH  028%=      5-min Rain = 0
KCO2 112305Z 03004KT 31/10 A3007 RMK A01 T03090103  RH  028%=      5-min Rain = 0
KCO2 112306Z 02003KT 31/10 A3007 RMK A01 T03100101  RH  027%=      5-min Rain = 0
KCO2 112307Z 03002KT 31/10 A3007 RMK A01 T03100100  RH  027%=      5-min Rain = 0
KCO2 112308Z 35001KT 31/10 A3006 RMK A01 T03100099  RH  027%=      5-min Rain = 0
KCO2 112309Z 33001KT 31/10 A3006 RMK A01 T03100100  RH  027%=      5-min Rain = 0
KCO2 112310Z 03002KT 31/10 A3006 RMK A01 T03100103  RH  028%=      5-min Rain = 0
KCO2 112311Z 06005KT 31/10 A3006 RMK A01 T03110103  RH  028%=      5-min Rain = 0
KCO2 112312Z 08006KT 31/11 A3006 RMK A01 T03110107  RH  028%=      5-min Rain = 0
KCO2 112313Z 08006KT 31/11 A3006 RMK A01 T03110106  RH  028%=      5-min Rain = 0
KCO2 112314Z 09006KT 31/10 A3006 RMK A01 T03100103  RH  028%=      5-min Rain = 0
KCO2 112315Z 09006KT 31/10 A3006 RMK A01 T03090104  RH  028%=      5-min Rain = 0
KCO2 112316Z 09004KT 31/10 A3006 RMK A01 T03090101  RH  028%=      5-min Rain = 0
KCO2 112317Z 09005KT 31/10 A3006 RMK A01 T03070101  RH  028%=      5-min Rain = 0
KCO2 112318Z 06004KT 31/10 A3006 RMK A01 T03070104  RH  029%=      5-min Rain = 0
KCO2 112319Z 05005KT 31/11 A3006 RMK A01 T03070106  RH  029%=      5-min Rain = 0
KCO2 112320Z 06005KT 31/10 A3006 RMK A01 T03070104  RH  028%=      5-min Rain = 0
KCO2 112321Z 09004KT 31/11 A3006 RMK A01 T03070105  RH  029%=      5-min Rain = 0
KCO2 112322Z 09003KT 31/11 A3006 RMK A01 T03070106  RH  029%=      5-min Rain = 0
KCO2 112323Z 07001KT 31/11 A3006 RMK A01 T03070105  RH  029%=      5-min Rain = 0
KCO2 112324Z 06003KT 31/10 A3006 RMK A01 T03070102  RH  028%=      5-min Rain = 0
KCO2 112325Z 07003KT 31/10 A3006 RMK A01 T03070104  RH  029%=      5-min Rain = 0
KCO2 112326Z 08003KT 31/10 A3006 RMK A01 T03070104  RH  028%=      5-min Rain = 0
KCO2 112327Z 08004KT 31/10 A3006 RMK A01 T03070104  RH  029%=      5-min Rain = 0
KCO2 112328Z 05006KT 31/11 A3006 RMK A01 T03070107  RH  029%=      5-min Rain = 0
KCO2 112329Z 06006KT 31/10 A3006 RMK A01 T03070103  RH  028%=      5-min Rain = 0
KCO2 112330Z 07006KT 31/11 A3006 RMK A01 T03060105  RH  029%=      5-min Rain = 0
KCO2 112331Z 06009KT 31/10 A3006 RMK A01 T03060104  RH  029%=      5-min Rain = 0
KCO2 112332Z 05008KT 31/10 A3006 RMK A01 T03060103  RH  029%=      5-min Rain = 0
KCO2 112333Z 06005KT 31/10 A3006 RMK A01 T03050103  RH  029%=      5-min Rain = 0
KCO2 112334Z 05005KT 31/11 A3006 RMK A01 T03050105  RH  029%=      5-min Rain = 0
KCO2 112335Z 05006KT 31/11 A3006 RMK A01 T03050105  RH  029%=      5-min Rain = 0
KCO2 112336Z 06006KT 30/10 A3006 RMK A01 T03040103  RH  029%=      5-min Rain = 0
KCO2 112337Z 05006KT 30/10 A3006 RMK A01 T03040103  RH  029%=      5-min Rain = 0
KCO2 112338Z 06006KT 30/10 A3006 RMK A01 T03040103  RH  029%=      5-min Rain = 0
KCO2 112339Z 05004KT 30/10 A3006 RMK A01 T03030102  RH  029%=      5-min Rain = 0
KCO2 112340Z 07003KT 30/10 A3006 RMK A01 T03030103  RH  029%=      5-min Rain = 0
KCO2 112341Z 08002KT 30/10 A3006 RMK A01 T03020101  RH  029%=      5-min Rain = 0
KCO2 112342Z 08002KT 30/10 A3006 RMK A01 T03030101  RH  029%=      5-min Rain = 0
KCO2 112343Z 07006KT 30/11 A3006 RMK A01 T03030107  RH  030%=      5-min Rain = 0
KCO2 112344Z 05006KT 30/11 A3006 RMK A01 T03020105  RH  029%=      5-min Rain = 0
KCO2 112345Z 06005KT 30/11 A3006 RMK A01 T03030105  RH  030%=      5-min Rain = 0
KCO2 112346Z 07005KT 30/11 A3006 RMK A01 T03020106  RH  030%=      5-min Rain = 0
KCO2 112347Z 06006KT 30/11 A3006 RMK A01 T03020106  RH  030%=      5-min Rain = 0
KCO2 112348Z 06006KT 30/10 A3006 RMK A01 T03020102  RH  029%=      5-min Rain = 0
KCO2 112349Z 07006KT 30/10 A3006 RMK A01 T03020103  RH  029%=      5-min Rain = 0
KCO2 112350Z 06006KT 30/11 A3006 RMK A01 T03020105  RH  030%=      5-min Rain = 0
KCO2 112351Z 06005KT 30/10 A3006 RMK A01 T03020102  RH  029%=      5-min Rain = 0
KCO2 112352Z 06005KT 30/10 A3006 RMK A01 T03010103  RH  029%=      5-min Rain = 0
KCO2 112353Z 08006KT 30/11 A3006 RMK A01 T03010105  RH  030%=      5-min Rain = 0
KCO2 112354Z 08007KT 30/11 A3006 RMK A01 T03000107  RH  030%=      5-min Rain = 0
KCO2 112355Z 09006KT 30/11 A3006 RMK A01 T03000106  RH  030%=      5-min Rain = 0
KCO2 112356Z 07006KT 30/11 A3006 RMK A01 T02990107  RH  030%=      5-min Rain = 0
KCO2 112357Z 07006KT 30/11 A3006 RMK A01 T02990106  RH  030%=      5-min Rain = 0
KCO2 112358Z 08006KT 30/10 A3006 RMK A01 T02980104  RH  030%=      5-min Rain = 0
KCO2 112359Z 09006KT 30/11 A3006 RMK A01 T02980105  RH  030%=      5-min Rain = 0
KCO2 120000Z 09007KT 30/11 A3006 RMK A01 T02980106  RH  030%=      5-min Rain = 0
KCO2 120001Z 08006KT 30/11 A3006 RMK A01 T02970105  RH  030%=      5-min Rain = 0
KCO2 120002Z 08005KT 30/11 A3006 RMK A01 T02970107  RH  031%=      5-min Rain = 0
KCO2 120003Z 08006KT 30/11 A3006 RMK A01 T02960108  RH  031%=      5-min Rain = 0
KCO2 120004Z 08005KT 30/11 A3006 RMK A01 T02960107  RH  031%=      5-min Rain = 0
KCO2 120005Z 07005KT 30/11 A3006 RMK A01 T02950108  RH  031%=      5-min Rain = 0
KCO2 120006Z 08005KT 30/11 A3006 RMK A01 T02950109  RH  032%=      5-min Rain = 0
KCO2 120007Z 09006KT 30/11 A3006 RMK A01 T02950107  RH  031%=      5-min Rain = 0
KCO2 120008Z 08007KT 29/11 A3006 RMK A01 T02940105  RH  031%=      5-min Rain = 0
KCO2 120009Z 09006KT 29/11 A3006 RMK A01 T02940106  RH  031%=      5-min Rain = 0
KCO2 120010Z 09005KT 29/11 A3006 RMK A01 T02930107  RH  032%=      5-min Rain = 0
KCO2 120011Z 09005KT 29/11 A3006 RMK A01 T02930109  RH  032%=      5-min Rain = 0
KCO2 120012Z 08005KT 29/11 A3006 RMK A01 T02930111  RH  032%=      5-min Rain = 0
KCO2 120013Z 08006KT 29/11 A3006 RMK A01 T02920110  RH  032%=      5-min Rain = 0
KCO2 120014Z 08006KT 29/11 A3006 RMK A01 T02910107  RH  032%=      5-min Rain = 0
KCO2 120015Z 08008KT 29/11 A3006 RMK A01 T02910107  RH  032%=      5-min Rain = 0
KCO2 120016Z 09006KT 29/11 A3006 RMK A01 T02910107  RH  032%=      5-min Rain = 0
KCO2 120017Z 09006KT 29/11 A3006 RMK A01 T02900108  RH  032%=      5-min Rain = 0
KCO2 120018Z 09006KT 29/11 A3006 RMK A01 T02890108  RH  032%=      5-min Rain = 0
KCO2 120019Z 10006KT 29/11 A3006 RMK A01 T02880108  RH  033%=      5-min Rain = 0
KCO2 120020Z 09006KT 29/11 A3006 RMK A01 T02870108  RH  033%=      5-min Rain = 0
KCO2 120021Z 09006KT 29/11 A3006 RMK A01 T02870109  RH  033%=      5-min Rain = 0
KCO2 120022Z 09006KT 29/11 A3006 RMK A01 T02860109  RH  033%=      5-min Rain = 0
KCO2 120023Z 10006KT 29/11 A3006 RMK A01 T02850110  RH  034%=      5-min Rain = 0
KCO2 120024Z 10006KT 28/11 A3006 RMK A01 T02840109  RH  034%=      5-min Rain = 0
KCO2 120025Z 10006KT 28/11 A3006 RMK A01 T02830110  RH  034%=      5-min Rain = 0
KCO2 120026Z 09005KT 28/11 A3006 RMK A01 T02820110  RH  034%=      5-min Rain = 0
KCO2 120027Z 10005KT 28/11 A3006 RMK A01 T02810110  RH  034%=      5-min Rain = 0
KCO2 120028Z 09005KT 28/11 A3006 RMK A01 T02800110  RH  035%=      5-min Rain = 0
KCO2 120029Z 09005KT 28/11 A3006 RMK A01 T02790110  RH  035%=      5-min Rain = 0
KCO2 120030Z 09005KT 28/11 A3006 RMK A01 T02790110  RH  035%=      5-min Rain = 0
KCO2 120031Z 09005KT 28/11 A3006 RMK A01 T02780111  RH  035%=      5-min Rain = 0
KCO2 120032Z 09005KT 28/11 A3006 RMK A01 T02780110  RH  035%=      5-min Rain = 0
KCO2 120033Z 09006KT 28/11 A3006 RMK A01 T02770109  RH  035%=      5-min Rain = 0
KCO2 120034Z 09006KT 28/11 A3006 RMK A01 T02770108  RH  035%=      5-min Rain = 0
KCO2 120035Z 09005KT 28/11 A3006 RMK A01 T02760108  RH  035%=      5-min Rain = 0
KCO2 120036Z 09005KT 28/11 A3006 RMK A01 T02760108  RH  035%=      5-min Rain = 0
KCO2 120037Z 10006KT 28/11 A3006 RMK A01 T02750108  RH  035%=      5-min Rain = 0
KCO2 120038Z 10005KT 27/11 A3006 RMK A01 T02740108  RH  035%=      5-min Rain = 0
KCO2 120039Z 09005KT 27/11 A3006 RMK A01 T02730108  RH  036%=      5-min Rain = 0
KCO2 120040Z 10005KT 27/11 A3006 RMK A01 T02720108  RH  036%=      5-min Rain = 0
KCO2 120041Z 09005KT 27/11 A3006 RMK A01 T02700108  RH  036%=      5-min Rain = 0
KCO2 120042Z 09005KT 27/11 A3006 RMK A01 T02690108  RH  037%=      5-min Rain = 0
KCO2 120043Z 09005KT 27/11 A3006 RMK A01 T02680108  RH  037%=      5-min Rain = 0
KCO2 120044Z 10006KT 27/11 A3006 RMK A01 T02670108  RH  037%=      5-min Rain = 0
KCO2 120045Z 10006KT 27/11 A3006 RMK A01 T02660108  RH  037%=      5-min Rain = 0
KCO2 120046Z 10006KT 27/11 A3006 RMK A01 T02650108  RH  037%=      5-min Rain = 0
KCO2 120047Z 10006KT 26/11 A3006 RMK A01 T02640109  RH  038%=      5-min Rain = 0
KCO2 120048Z 10006KT 26/11 A3006 RMK A01 T02620109  RH  038%=      5-min Rain = 0
KCO2 120049Z 10006KT 26/11 A3006 RMK A01 T02610108  RH  038%=      5-min Rain = 0
KCO2 120050Z 10006KT 26/11 A3006 RMK A01 T02600108  RH  039%=      5-min Rain = 0
KCO2 120051Z 10006KT 26/11 A3006 RMK A01 T02590108  RH  039%=      5-min Rain = 0
KCO2 120052Z 11006KT 26/11 A3006 RMK A01 T02570109  RH  039%=      5-min Rain = 0
KCO2 120053Z 11006KT 26/11 A3006 RMK A01 T02560109  RH  040%=      5-min Rain = 0
KCO2 120054Z 11006KT 25/11 A3006 RMK A01 T02540109  RH  040%=      5-min Rain = 0
KCO2 120055Z 11006KT 25/11 A3006 RMK A01 T02530109  RH  040%=      5-min Rain = 0
KCO2 120056Z 11006KT 25/11 A3006 RMK A01 T02520109  RH  041%=      5-min Rain = 0
KCO2 120057Z 11006KT 25/11 A3006 RMK A01 T02500109  RH  041%=      5-min Rain = 0
KCO2 120058Z 11006KT 25/11 A3006 RMK A01 T02490109  RH  041%=      5-min Rain = 0
KCO2 120059Z 11006KT 25/11 A3006 RMK A01 T02490109  RH  041%=      5-min Rain = 0
KCO2 120100Z 11006KT 25/11 A3006 RMK A01 T02480109  RH  042%=      5-min Rain = 0
KCO2 120101Z 11006KT 25/11 A3006 RMK A01 T02480110  RH  042%=      5-min Rain = 0
KCO2 120102Z 11006KT 25/11 A3006 RMK A01 T02480110  RH  042%=      5-min Rain = 0
KCO2 120103Z 11006KT 25/11 A3005 RMK A01 T02470110  RH  042%=      5-min Rain = 0
KCO2 120104Z 11006KT 25/11 A3005 RMK A01 T02470110  RH  042%=      5-min Rain = 0
KCO2 120105Z 10006KT 25/11 A3006 RMK A01 T02470110  RH  042%=      5-min Rain = 0
KCO2 120106Z 11005KT 25/11 A3006 RMK A01 T02460110  RH  042%=      5-min Rain = 0
KCO2 120107Z 10005KT 25/11 A3006 RMK A01 T02460110  RH  042%=      5-min Rain = 0
KCO2 120108Z 10005KT 25/11 A3006 RMK A01 T02470110  RH  042%=      5-min Rain = 0
KCO2 120109Z 10005KT 25/11 A3006 RMK A01 T02480110  RH  042%=      5-min Rain = 0
KCO2 120110Z 09005KT 25/11 A3006 RMK A01 T02490110  RH  042%=      5-min Rain = 0
KCO2 120111Z 09005KT 25/11 A3006 RMK A01 T02490111  RH  042%=      5-min Rain = 0
KCO2 120112Z 09005KT 25/11 A3006 RMK A01 T02480111  RH  042%=      5-min Rain = 0
KCO2 120113Z 09005KT 25/11 A3006 RMK A01 T02470111  RH  042%=      5-min Rain = 0
KCO2 120114Z 09005KT 25/11 A3006 RMK A01 T02450111  RH  043%=      5-min Rain = 0
KCO2 120115Z 09005KT 24/11 A3006 RMK A01 T02440111  RH  043%=      5-min Rain = 0
KCO2 120116Z 09005KT 24/11 A3006 RMK A01 T02420111  RH  044%=      5-min Rain = 0
KCO2 120117Z 09006KT 24/11 A3006 RMK A01 T02410111  RH  044%=      5-min Rain = 0
KCO2 120118Z 09006KT 24/11 A3006 RMK A01 T02410111  RH  044%=      5-min Rain = 0
KCO2 120119Z 09006KT 24/11 A3006 RMK A01 T02410111  RH  044%=      5-min Rain = 0
KCO2 120120Z 09006KT 24/11 A3006 RMK A01 T02410111  RH  044%=      5-min Rain = 0
KCO2 120121Z 09006KT 24/11 A3006 RMK A01 T02400111  RH  044%=      5-min Rain = 0
KCO2 120122Z 09006KT 24/11 A3006 RMK A01 T02400111  RH  044%=      5-min Rain = 0
KCO2 120123Z 10006KT 24/11 A3006 RMK A01 T02400110  RH  044%=      5-min Rain = 0
KCO2 120124Z 10006KT 24/11 A3006 RMK A01 T02400110  RH  044%=      5-min Rain = 0
KCO2 120125Z 10005KT 24/11 A3006 RMK A01 T02410110  RH  044%=      5-min Rain = 0
KCO2 120126Z 10005KT 24/11 A3006 RMK A01 T02410110  RH  044%=      5-min Rain = 0
KCO2 120127Z 10005KT 24/11 A3006 RMK A01 T02410110  RH  044%=      5-min Rain = 0
KCO2 120128Z 10005KT 24/11 A3006 RMK A01 T02410110  RH  044%=      5-min Rain = 0
KCO2 120129Z 10005KT 24/11 A3006 RMK A01 T02410111  RH  044%=      5-min Rain = 0
KCO2 120130Z 10005KT 24/11 A3006 RMK A01 T02410111  RH  044%=      5-min Rain = 0
KCO2 120131Z 09005KT 24/11 A3006 RMK A01 T02400111  RH  044%=      5-min Rain = 0
KCO2 120132Z 09005KT 24/11 A3006 RMK A01 T02400111  RH  044%=      5-min Rain = 0
KCO2 120133Z 09005KT 24/11 A3006 RMK A01 T02390111  RH  044%=      5-min Rain = 0
KCO2 120134Z 09005KT 24/11 A3006 RMK A01 T02380111  RH  045%=      5-min Rain = 0
KCO2 120135Z 09005KT 24/11 A3006 RMK A01 T02360111  RH  045%=      5-min Rain = 0
KCO2 120136Z 09005KT 24/11 A3006 RMK A01 T02350111  RH  045%=      5-min Rain = 0
KCO2 120137Z 09005KT 23/11 A3006 RMK A01 T02340111  RH  046%=      5-min Rain = 0
KCO2 120138Z 09005KT 23/11 A3006 RMK A01 T02340111  RH  046%=      5-min Rain = 0
KCO2 120139Z 09005KT 23/11 A3006 RMK A01 T02330111  RH  046%=      5-min Rain = 0
KCO2 120140Z 10005KT 23/11 A3006 RMK A01 T02330111  RH  046%=      5-min Rain = 0
KCO2 120141Z 10005KT 23/11 A3006 RMK A01 T02330111  RH  046%=      5-min Rain = 0
KCO2 120142Z 09005KT 23/11 A3006 RMK A01 T02330111  RH  046%=      5-min Rain = 0
KCO2 120143Z 09006KT 23/11 A3006 RMK A01 T02340111  RH  046%=      5-min Rain = 0
KCO2 120144Z 09006KT 23/11 A3006 RMK A01 T02340110  RH  046%=      5-min Rain = 0
KCO2 120145Z 09006KT 24/11 A3006 RMK A01 T02350110  RH  045%=      5-min Rain = 0
KCO2 120146Z 09005KT 24/11 A3006 RMK A01 T02350110  RH  045%=      5-min Rain = 0
KCO2 120147Z 09005KT 24/11 A3006 RMK A01 T02350110  RH  045%=      5-min Rain = 0
KCO2 120148Z 09005KT 24/11 A3006 RMK A01 T02350110  RH  045%=      5-min Rain = 0
KCO2 120149Z 10005KT 24/11 A3006 RMK A01 T02350110  RH  045%=      5-min Rain = 0
KCO2 120150Z 10005KT 24/11 A3006 RMK A01 T02350110  RH  045%=      5-min Rain = 0
KCO2 120151Z 10005KT 23/11 A3006 RMK A01 T02330110  RH  046%=      5-min Rain = 0
KCO2 120152Z 10005KT 23/11 A3007 RMK A01 T02310110  RH  047%=      5-min Rain = 0
KCO2 120153Z 10005KT 23/11 A3007 RMK A01 T02280110  RH  047%=      5-min Rain = 0
KCO2 120154Z 10005KT 23/11 A3007 RMK A01 T02260110  RH  048%=      5-min Rain = 0
KCO2 120155Z 10005KT 23/11 A3007 RMK A01 T02250110  RH  048%=      5-min Rain = 0
KCO2 120156Z 10006KT 23/11 A3007 RMK A01 T02250109  RH  048%=      5-min Rain = 0
KCO2 120157Z 10005KT 22/11 A3007 RMK A01 T02240110  RH  048%=      5-min Rain = 0
KCO2 120158Z 10005KT 22/11 A3007 RMK A01 T02230110  RH  048%=      5-min Rain = 0
KCO2 120159Z 10005KT 22/11 A3007 RMK A01 T02230110  RH  049%=      5-min Rain = 0
KCO2 120200Z 10005KT 22/11 A3007 RMK A01 T02230110  RH  049%=      5-min Rain = 0
KCO2 120201Z 10004KT 22/11 A3007 RMK A01 T02230109  RH  048%=      5-min Rain = 0
KCO2 120202Z 11004KT 22/11 A3007 RMK A01 T02230110  RH  049%=      5-min Rain = 0
KCO2 120203Z 11004KT 22/11 A3007 RMK A01 T02210110  RH  049%=      5-min Rain = 0
KCO2 120204Z 10004KT 22/11 A3007 RMK A01 T02210110  RH  049%=      5-min Rain = 0
KCO2 120205Z 11004KT 22/11 A3007 RMK A01 T02220109  RH  049%=      5-min Rain = 0
KCO2 120206Z 11004KT 22/11 A3007 RMK A01 T02220109  RH  049%=      5-min Rain = 0
KCO2 120207Z 11004KT 22/11 A3007 RMK A01 T02210110  RH  049%=      5-min Rain = 0
KCO2 120208Z 11005KT 22/11 A3007 RMK A01 T02190110  RH  050%=      5-min Rain = 0
KCO2 120209Z 11005KT 22/11 A3007 RMK A01 T02180110  RH  050%=      5-min Rain = 0
KCO2 120210Z 10005KT 22/11 A3007 RMK A01 T02180110  RH  050%=      5-min Rain = 0
KCO2 120211Z 10005KT 22/11 A3007 RMK A01 T02180110  RH  050%=      5-min Rain = 0
KCO2 120212Z 09005KT 22/11 A3007 RMK A01 T02170111  RH  051%=      5-min Rain = 0
KCO2 120213Z 09005KT 22/11 A3007 RMK A01 T02190111  RH  050%=      5-min Rain = 0
KCO2 120214Z 09005KT 22/11 A3007 RMK A01 T02200111  RH  050%=      5-min Rain = 0
KCO2 120215Z 09005KT 22/11 A3007 RMK A01 T02210112  RH  050%=      5-min Rain = 0
KCO2 120216Z 09006KT 22/11 A3007 RMK A01 T02210112  RH  050%=      5-min Rain = 0
KCO2 120217Z 10006KT 22/11 A3007 RMK A01 T02210112  RH  050%=      5-min Rain = 0
KCO2 120218Z 09006KT 22/11 A3007 RMK A01 T02210112  RH  050%=      5-min Rain = 0
KCO2 120219Z 10006KT 22/11 A3007 RMK A01 T02210112  RH  050%=      5-min Rain = 0
KCO2 120220Z 10006KT 22/11 A3007 RMK A01 T02210111  RH  050%=      5-min Rain = 0
KCO2 120221Z 10006KT 22/11 A3007 RMK A01 T02210111  RH  050%=      5-min Rain = 0
KCO2 120222Z 10006KT 22/11 A3007 RMK A01 T02210111  RH  050%=      5-min Rain = 0
KCO2 120223Z 10005KT 22/11 A3007 RMK A01 T02200111  RH  050%=      5-min Rain = 0
KCO2 120224Z 10005KT 22/11 A3008 RMK A01 T02190111  RH  050%=      5-min Rain = 0
KCO2 120225Z 10005KT 22/11 A3008 RMK A01 T02180111  RH  051%=      5-min Rain = 0
KCO2 120226Z 10005KT 22/11 A3008 RMK A01 T02160111  RH  051%=      5-min Rain = 0
KCO2 120227Z 09005KT 22/11 A3008 RMK A01 T02150111  RH  052%=      5-min Rain = 0
KCO2 120228Z 09005KT 21/11 A3008 RMK A01 T02130111  RH  052%=      5-min Rain = 0
KCO2 120229Z 09004KT 21/11 A3008 RMK A01 T02130111  RH  052%=      5-min Rain = 0
KCO2 120230Z 09004KT 21/11 A3008 RMK A01 T02120111  RH  053%=      5-min Rain = 0
KCO2 120231Z 09005KT 21/11 A3007 RMK A01 T02110111  RH  053%=      5-min Rain = 0
KCO2 120232Z 09005KT 21/11 A3007 RMK A01 T02110111  RH  053%=      5-min Rain = 0
KCO2 120233Z 09005KT 21/11 A3007 RMK A01 T02120111  RH  053%=      5-min Rain = 0
KCO2 120234Z 09005KT 21/11 A3008 RMK A01 T02120111  RH  053%=      5-min Rain = 0
KCO2 120235Z 09005KT 21/11 A3008 RMK A01 T02120111  RH  053%=      5-min Rain = 0
KCO2 120236Z 09005KT 21/11 A3008 RMK A01 T02130111  RH  052%=      5-min Rain = 0
KCO2 120237Z 09005KT 21/11 A3008 RMK A01 T02130111  RH  052%=      5-min Rain = 0
KCO2 120238Z 09006KT 21/11 A3008 RMK A01 T02130112  RH  052%=      5-min Rain = 0
KCO2 120239Z 09006KT 21/11 A3008 RMK A01 T02130112  RH  052%=      5-min Rain = 0
KCO2 120240Z 09006KT 21/11 A3008 RMK A01 T02130112  RH  052%=      5-min Rain = 0
KCO2 120241Z 09006KT 21/11 A3008 RMK A01 T02120111  RH  052%=      5-min Rain = 0
KCO2 120242Z 09006KT 21/11 A3008 RMK A01 T02120112  RH  053%=      5-min Rain = 0
KCO2 120243Z 08006KT 21/11 A3008 RMK A01 T02110111  RH  053%=      5-min Rain = 0
KCO2 120244Z 08006KT 21/11 A3008 RMK A01 T02110112  RH  053%=      5-min Rain = 0
KCO2 120245Z 08006KT 21/11 A3008 RMK A01 T02110112  RH  053%=      5-min Rain = 0
KCO2 120246Z 08006KT 21/11 A3008 RMK A01 T02110112  RH  053%=      5-min Rain = 0
KCO2 120247Z 09006KT 21/11 A3008 RMK A01 T02110112  RH  053%=      5-min Rain = 0
KCO2 120248Z 09006KT 21/11 A3008 RMK A01 T02110112  RH  053%=      5-min Rain = 0
KCO2 120249Z 09006KT 21/11 A3008 RMK A01 T02110112  RH  053%=      5-min Rain = 0
KCO2 120250Z 09006KT 21/11 A3008 RMK A01 T02110112  RH  053%=      5-min Rain = 0
KCO2 120251Z 09005KT 21/11 A3008 RMK A01 T02110112  RH  053%=      5-min Rain = 0
KCO2 120252Z 09006KT 21/11 A3008 RMK A01 T02110112  RH  053%=      5-min Rain = 0
KCO2 120253Z 08006KT 21/11 A3008 RMK A01 T02110112  RH  053%=      5-min Rain = 0
KCO2 120254Z 09005KT 21/11 A3008 RMK A01 T02110112  RH  053%=      5-min Rain = 0
KCO2 120255Z 09005KT 21/11 A3008 RMK A01 T02120112  RH  053%=      5-min Rain = 0
KCO2 120256Z 09005KT 21/11 A3008 RMK A01 T02110112  RH  053%=      5-min Rain = 0
KCO2 120257Z 09005KT 21/11 A3008 RMK A01 T02100112  RH  053%=      5-min Rain = 0
KCO2 120258Z 09005KT 21/11 A3008 RMK A01 T02100112  RH  053%=      5-min Rain = 0
KCO2 120259Z 09005KT 21/11 A3008 RMK A01 T02080112  RH  054%=      5-min Rain = 0
KCO2 120300Z 09005KT 21/11 A3008 RMK A01 T02060111  RH  054%=      5-min Rain = 0
KCO2 120301Z 09005KT 20/11 A3008 RMK A01 T02040111  RH  055%=      5-min Rain = 0
KCO2 120302Z 09005KT 20/11 A3008 RMK A01 T02030112  RH  056%=      5-min Rain = 0
KCO2 120303Z 09005KT 20/11 A3008 RMK A01 T02020111  RH  056%=      5-min Rain = 0
KCO2 120304Z 09005KT 20/11 A3008 RMK A01 T02020111  RH  056%=      5-min Rain = 0
KCO2 120305Z 09005KT 20/11 A3008 RMK A01 T02010111  RH  056%=      5-min Rain = 0
KCO2 120306Z 09005KT 20/11 A3008 RMK A01 T02000112  RH  057%=      5-min Rain = 0
KCO2 120307Z 09005KT 20/11 A3008 RMK A01 T02000112  RH  057%=      5-min Rain = 0
KCO2 120308Z 09006KT 20/11 A3008 RMK A01 T01990112  RH  057%=      5-min Rain = 0
KCO2 120309Z 09005KT 20/11 A3008 RMK A01 T01990111  RH  057%=      5-min Rain = 0
KCO2 120310Z 09005KT 20/11 A3008 RMK A01 T02000112  RH  057%=      5-min Rain = 0
KCO2 120311Z 09005KT 20/11 A3008 RMK A01 T02000111  RH  057%=      5-min Rain = 0
KCO2 120312Z 09006KT 20/11 A3008 RMK A01 T02000111  RH  057%=      5-min Rain = 0
KCO2 120313Z 09006KT 20/11 A3008 RMK A01 T02000112  RH  057%=      5-min Rain = 0
KCO2 120314Z 09006KT 20/11 A3008 RMK A01 T01990111  RH  057%=      5-min Rain = 0
KCO2 120315Z 09006KT 20/11 A3008 RMK A01 T01990111  RH  057%=      5-min Rain = 0
KCO2 120316Z 09006KT 20/11 A3008 RMK A01 T01990111  RH  057%=      5-min Rain = 0
KCO2 120317Z 09005KT 20/11 A3008 RMK A01 T02000111  RH  057%=      5-min Rain = 0
KCO2 120318Z 08005KT 20/11 A3008 RMK A01 T02010111  RH  056%=      5-min Rain = 0
KCO2 120319Z 08006KT 20/11 A3008 RMK A01 T02020111  RH  056%=      5-min Rain = 0
KCO2 120320Z 09006KT 20/11 A3008 RMK A01 T02020112  RH  056%=      5-min Rain = 0
KCO2 120321Z 09006KT 20/11 A3008 RMK A01 T02020111  RH  056%=      5-min Rain = 0
KCO2 120322Z 09006KT 20/11 A3008 RMK A01 T02020111  RH  056%=      5-min Rain = 0
KCO2 120323Z 09005KT 20/11 A3008 RMK A01 T02020111  RH  056%=      5-min Rain = 0
KCO2 120324Z 09005KT 20/11 A3008 RMK A01 T02020111  RH  056%=      5-min Rain = 0
KCO2 120325Z 09005KT 20/11 A3008 RMK A01 T02020110  RH  056%=      5-min Rain = 0
KCO2 120326Z 09005KT 20/11 A3008 RMK A01 T02020111  RH  056%=      5-min Rain = 0
KCO2 120327Z 09005KT 20/11 A3008 RMK A01 T02020110  RH  055%=      5-min Rain = 0
KCO2 120328Z 09005KT 20/11 A3008 RMK A01 T02030110  RH  055%=      5-min Rain = 0
KCO2 120329Z 09006KT 20/11 A3008 RMK A01 T02030110  RH  055%=      5-min Rain = 0
KCO2 120330Z 09006KT 20/11 A3008 RMK A01 T02030110  RH  055%=      5-min Rain = 0
KCO2 120331Z 09006KT 20/11 A3008 RMK A01 T02030110  RH  055%=      5-min Rain = 0
KCO2 120332Z 09006KT 20/11 A3008 RMK A01 T02030110  RH  055%=      5-min Rain = 0
KCO2 120333Z 09006KT 20/11 A3008 RMK A01 T02030110  RH  055%=      5-min Rain = 0
KCO2 120334Z 09006KT 20/11 A3008 RMK A01 T02030110  RH  055%=      5-min Rain = 0
KCO2 120335Z 09006KT 20/11 A3008 RMK A01 T02020110  RH  055%=      5-min Rain = 0
KCO2 120336Z 09006KT 20/11 A3008 RMK A01 T02010110  RH  056%=      5-min Rain = 0
KCO2 120337Z 09006KT 20/11 A3008 RMK A01 T02000109  RH  056%=      5-min Rain = 0
KCO2 120338Z 09006KT 20/11 A3008 RMK A01 T02000109  RH  056%=      5-min Rain = 0
KCO2 120339Z 09006KT 20/11 A3008 RMK A01 T01990109  RH  056%=      5-min Rain = 0
KCO2 120340Z 09006KT 20/11 A3008 RMK A01 T01990109  RH  056%=      5-min Rain = 0
KCO2 120341Z 09006KT 20/11 A3008 RMK A01 T01990109  RH  056%=      5-min Rain = 0
KCO2 120342Z 09006KT 20/11 A3008 RMK A01 T01990109  RH  056%=      5-min Rain = 0
KCO2 120343Z 09005KT 20/11 A3008 RMK A01 T01980109  RH  056%=      5-min Rain = 0
KCO2 120344Z 09005KT 20/11 A3008 RMK A01 T01980108  RH  056%=      5-min Rain = 0
KCO2 120345Z 09005KT 20/11 A3008 RMK A01 T01970108  RH  056%=      5-min Rain = 0
KCO2 120346Z 09005KT 20/11 A3008 RMK A01 T01960108  RH  057%=      5-min Rain = 0
KCO2 120347Z 09005KT 20/11 A3008 RMK A01 T01950108  RH  057%=      5-min Rain = 0
KCO2 120348Z 09005KT 19/11 A3008 RMK A01 T01940108  RH  057%=      5-min Rain = 0
KCO2 120349Z 09005KT 19/11 A3008 RMK A01 T01940108  RH  057%=      5-min Rain = 0
KCO2 120350Z 09005KT 19/11 A3008 RMK A01 T01940108  RH  057%=      5-min Rain = 0
KCO2 120351Z 09005KT 19/11 A3008 RMK A01 T01930108  RH  057%=      5-min Rain = 0
KCO2 120352Z 10005KT 19/11 A3008 RMK A01 T01930108  RH  058%=      5-min Rain = 0
KCO2 120353Z 10005KT 19/11 A3008 RMK A01 T01930108  RH  058%=      5-min Rain = 0
KCO2 120354Z 10005KT 19/11 A3009 RMK A01 T01930108  RH  058%=      5-min Rain = 0
KCO2 120355Z 10005KT 19/11 A3009 RMK A01 T01920107  RH  058%=      5-min Rain = 0
KCO2 120356Z 10005KT 19/11 A3009 RMK A01 T01920107  RH  058%=      5-min Rain = 0
KCO2 120357Z 10005KT 19/11 A3009 RMK A01 T01920108  RH  058%=      5-min Rain = 0
KCO2 120358Z 10005KT 19/11 A3009 RMK A01 T01910107  RH  058%=      5-min Rain = 0
KCO2 120359Z 09005KT 19/11 A3009 RMK A01 T01910107  RH  058%=      5-min Rain = 0
KCO2 120400Z 09005KT 19/11 A3009 RMK A01 T01910108  RH  058%=      5-min Rain = 0
KCO2 120401Z 09005KT 19/11 A3009 RMK A01 T01910107  RH  058%=      5-min Rain = 0
KCO2 120402Z 09005KT 19/11 A3009 RMK A01 T01920107  RH  058%=      5-min Rain = 0
KCO2 120403Z 09005KT 19/11 A3009 RMK A01 T01920108  RH  058%=      5-min Rain = 0
KCO2 120404Z 09005KT 19/11 A3009 RMK A01 T01920107  RH  058%=      5-min Rain = 0
KCO2 120405Z 09005KT 19/11 A3009 RMK A01 T01920108  RH  058%=      5-min Rain = 0
KCO2 120406Z 09005KT 19/11 A3009 RMK A01 T01910107  RH  058%=      5-min Rain = 0
KCO2 120407Z 09005KT 19/11 A3009 RMK A01 T01900108  RH  059%=      5-min Rain = 0
KCO2 120408Z 09005KT 19/11 A3009 RMK A01 T01890108  RH  059%=      5-min Rain = 0
KCO2 120409Z 09005KT 19/11 A3009 RMK A01 T01880108  RH  059%=      5-min Rain = 0
KCO2 120410Z 09005KT 19/11 A3009 RMK A01 T01880108  RH  059%=      5-min Rain = 0
KCO2 120411Z 09005KT 19/11 A3009 RMK A01 T01890108  RH  059%=      5-min Rain = 0
KCO2 120412Z 09005KT 19/11 A3009 RMK A01 T01880107  RH  059%=      5-min Rain = 0
KCO2 120413Z 09005KT 19/11 A3009 RMK A01 T01880107  RH  059%=      5-min Rain = 0
KCO2 120414Z 09005KT 19/11 A3009 RMK A01 T01890107  RH  059%=      5-min Rain = 0
KCO2 120415Z 09005KT 19/11 A3009 RMK A01 T01880107  RH  059%=      5-min Rain = 0
KCO2 120416Z 09005KT 19/11 A3009 RMK A01 T01880107  RH  059%=      5-min Rain = 0
KCO2 120417Z 09005KT 19/11 A3009 RMK A01 T01880107  RH  059%=      5-min Rain = 0
KCO2 120418Z 08005KT 19/11 A3009 RMK A01 T01880107  RH  059%=      5-min Rain = 0
KCO2 120419Z 09005KT 19/11 A3009 RMK A01 T01890107  RH  059%=      5-min Rain = 0
KCO2 120420Z 09004KT 19/11 A3009 RMK A01 T01890107  RH  059%=      5-min Rain = 0
KCO2 120421Z 09004KT 19/11 A3009 RMK A01 T01900107  RH  058%=      5-min Rain = 0
KCO2 120422Z 09004KT 19/11 A3009 RMK A01 T01900106  RH  058%=      5-min Rain = 0
KCO2 120423Z 09004KT 19/11 A3009 RMK A01 T01900106  RH  058%=      5-min Rain = 0
KCO2 120424Z 09004KT 19/11 A3009 RMK A01 T01900107  RH  058%=      5-min Rain = 0
KCO2 120425Z 09004KT 19/11 A3009 RMK A01 T01890107  RH  059%=      5-min Rain = 0
KCO2 120426Z 09004KT 19/11 A3009 RMK A01 T01870106  RH  059%=      5-min Rain = 0
KCO2 120427Z 09005KT 19/11 A3009 RMK A01 T01870106  RH  060%=      5-min Rain = 0
KCO2 120428Z 09004KT 19/11 A3009 RMK A01 T01860106  RH  060%=      5-min Rain = 0
KCO2 120429Z 09004KT 19/11 A3009 RMK A01 T01870106  RH  060%=      5-min Rain = 0
KCO2 120430Z 10004KT 19/11 A3009 RMK A01 T01870106  RH  059%=      5-min Rain = 0
KCO2 120431Z 10004KT 19/11 A3009 RMK A01 T01870105  RH  059%=      5-min Rain = 0
KCO2 120432Z 09004KT 19/11 A3009 RMK A01 T01890106  RH  058%=      5-min Rain = 0
KCO2 120433Z 09004KT 19/11 A3009 RMK A01 T01900106  RH  058%=      5-min Rain = 0
KCO2 120434Z 09004KT 19/11 A3009 RMK A01 T01910105  RH  057%=      5-min Rain = 0
KCO2 120435Z 08004KT 19/11 A3009 RMK A01 T01930106  RH  057%=      5-min Rain = 0
KCO2 120436Z 08004KT 19/11 A3009 RMK A01 T01940106  RH  057%=      5-min Rain = 0
KCO2 120437Z 08004KT 20/11 A3009 RMK A01 T01950106  RH  056%=      5-min Rain = 0
KCO2 120438Z 08004KT 20/11 A3009 RMK A01 T01950105  RH  056%=      5-min Rain = 0
KCO2 120439Z 08004KT 20/11 A3009 RMK A01 T01960105  RH  056%=      5-min Rain = 0
KCO2 120440Z 08004KT 20/11 A3009 RMK A01 T01960105  RH  056%=      5-min Rain = 0
KCO2 120441Z 08004KT 20/11 A3009 RMK A01 T01960105  RH  056%=      5-min Rain = 0
KCO2 120442Z 08004KT 20/11 A3009 RMK A01 T01960105  RH  056%=      5-min Rain = 0
KCO2 120443Z 08004KT 20/11 A3009 RMK A01 T01960105  RH  056%=      5-min Rain = 0
KCO2 120444Z 08005KT 20/11 A3009 RMK A01 T01960105  RH  055%=      5-min Rain = 0
KCO2 120445Z 08005KT 20/11 A3009 RMK A01 T01960105  RH  056%=      5-min Rain = 0
KCO2 120446Z 08005KT 20/10 A3009 RMK A01 T01950104  RH  056%=      5-min Rain = 0
KCO2 120447Z 08005KT 20/10 A3009 RMK A01 T01950104  RH  056%=      5-min Rain = 0
KCO2 120448Z 08005KT 19/10 A3009 RMK A01 T01940104  RH  056%=      5-min Rain = 0
KCO2 120449Z 08005KT 19/10 A3009 RMK A01 T01930104  RH  056%=      5-min Rain = 0
KCO2 120450Z 08004KT 19/10 A3009 RMK A01 T01920104  RH  057%=      5-min Rain = 0
KCO2 120451Z 08004KT 19/10 A3009 RMK A01 T01910104  RH  057%=      5-min Rain = 0
KCO2 120452Z 08005KT 19/10 A3009 RMK A01 T01900104  RH  057%=      5-min Rain = 0
KCO2 120453Z 08005KT 19/10 A3009 RMK A01 T01890104  RH  058%=      5-min Rain = 0
KCO2 120454Z 08005KT 19/10 A3009 RMK A01 T01880104  RH  058%=      5-min Rain = 0
KCO2 120455Z 08005KT 19/10 A3009 RMK A01 T01880104  RH  058%=      5-min Rain = 0
KCO2 120456Z 08005KT 19/10 A3009 RMK A01 T01870103  RH  058%=      5-min Rain = 0
KCO2 120457Z 08005KT 19/10 A3009 RMK A01 T01870103  RH  058%=      5-min Rain = 0
KCO2 120458Z 08004KT 19/10 A3009 RMK A01 T01860103  RH  058%=      5-min Rain = 0
KCO2 120459Z 08004KT 19/10 A3009 RMK A01 T01860103  RH  059%=      5-min Rain = 0

Page generated in 0.1796 seconds.